<?xml version="1.0" encoding="UTF-8" standalone="no" ?><gpx xmlns="http://www.topografix.com/GPX/1/1" xmlns:gpxx="http://www.garmin.com/xmlschemas/GpxExtensions/v3" xmlns:wptx1="http://www.garmin.com/xmlschemas/WaypointExtension/v1" xmlns:gpxtpx="http://www.garmin.com/xmlschemas/TrackPointExtension/v1" creator="Oregon 450" version="1.1" xmlns:xsi="http://www.w3.org/2001/XMLSchema-instance" xsi:schemaLocation="http://www.topografix.com/GPX/1/1 http://www.topografix.com/GPX/1/1/gpx.xsd http://www.garmin.com/xmlschemas/GpxExtensions/v3 http://www8.garmin.com/xmlschemas/GpxExtensionsv3.xsd http://www.garmin.com/xmlschemas/WaypointExtension/v1 http://www8.garmin.com/xmlschemas/WaypointExtensionv1.xsd http://www.garmin.com/xmlschemas/TrackPointExtension/v1 http://www.garmin.com/xmlschemas/TrackPointExtensionv1.xsd"><metadata><link href="http://www.garmin.com"><text>Garmin International</text></link><time>2013-07-26T12:43:32Z</time></metadata><trk><name>26-ČRC-13 14:43:30</name><extensions><gpxx:TrackExtension><gpxx:DisplayColor>DarkRed</gpxx:DisplayColor></gpxx:TrackExtension></extensions><trkseg><trkpt lat="46.5196346864" lon="12.0081086084"><ele>2088.60</ele><time>2013-07-26T07:10:03Z</time></trkpt><trkpt lat="46.5196439065" lon="12.0081084408"><ele>2088.60</ele><time>2013-07-26T07:10:04Z</time></trkpt><trkpt lat="46.5197548829" lon="12.0081252884"><ele>2092.93</ele><time>2013-07-26T07:10:15Z</time></trkpt><trkpt lat="46.5197571460" lon="12.0081340056"><ele>2085.72</ele><time>2013-07-26T07:10:16Z</time></trkpt><trkpt lat="46.5197572298" lon="12.0081443153"><ele>2088.60</ele><time>2013-07-26T07:10:17Z</time></trkpt><trkpt lat="46.5197857283" lon="12.0082586445"><ele>2088.60</ele><time>2013-07-26T07:10:27Z</time></trkpt><trkpt lat="46.5197992232" lon="12.0083423797"><ele>2088.12</ele><time>2013-07-26T07:10:34Z</time></trkpt><trkpt lat="46.5198032465" lon="12.0083715487"><ele>2089.08</ele><time>2013-07-26T07:10:36Z</time></trkpt><trkpt lat="46.5198085271" lon="12.0084372628"><ele>2089.08</ele><time>2013-07-26T07:10:41Z</time></trkpt><trkpt lat="46.5198332537" lon="12.0085046533"><ele>2089.56</ele><time>2013-07-26T07:10:53Z</time></trkpt><trkpt lat="46.5198615845" lon="12.0085512567"><ele>2088.12</ele><time>2013-07-26T07:11:03Z</time></trkpt><trkpt lat="46.5198893286" lon="12.0085830241"><ele>2087.16</ele><time>2013-07-26T07:11:08Z</time></trkpt><trkpt lat="46.5199273825" lon="12.0086437929"><ele>2087.16</ele><time>2013-07-26T07:11:12Z</time></trkpt><trkpt lat="46.5199774224" lon="12.0087374188"><ele>2086.68</ele><time>2013-07-26T07:11:19Z</time></trkpt><trkpt lat="46.5200956073" lon="12.0088806655"><ele>2087.64</ele><time>2013-07-26T07:11:32Z</time></trkpt><trkpt lat="46.5201885626" lon="12.0089610480"><ele>2087.16</ele><time>2013-07-26T07:11:41Z</time></trkpt><trkpt lat="46.5202308912" lon="12.0090014488"><ele>2088.12</ele><time>2013-07-26T07:11:45Z</time></trkpt><trkpt lat="46.5203199908" lon="12.0091102459"><ele>2089.56</ele><time>2013-07-26T07:11:57Z</time></trkpt><trkpt lat="46.5203372575" lon="12.0091345534"><ele>2090.04</ele><time>2013-07-26T07:12:07Z</time></trkpt><trkpt lat="46.5203667618" lon="12.0091640577"><ele>2090.52</ele><time>2013-07-26T07:12:16Z</time></trkpt><trkpt lat="46.5204145387" lon="12.0092279278"><ele>2091.97</ele><time>2013-07-26T07:12:24Z</time></trkpt><trkpt lat="46.5204801690" lon="12.0092939772"><ele>2092.93</ele><time>2013-07-26T07:12:34Z</time></trkpt><trkpt lat="46.5205417760" lon="12.0093417540"><ele>2094.85</ele><time>2013-07-26T07:12:43Z</time></trkpt><trkpt lat="46.5205760580" lon="12.0093852561"><ele>2096.77</ele><time>2013-07-26T07:12:52Z</time></trkpt><trkpt lat="46.5206326358" lon="12.0094211306"><ele>2098.21</ele><time>2013-07-26T07:13:01Z</time></trkpt><trkpt lat="46.5206659120" lon="12.0094309375"><ele>2100.14</ele><time>2013-07-26T07:13:11Z</time></trkpt><trkpt lat="46.5207580291" lon="12.0094615314"><ele>2102.06</ele><time>2013-07-26T07:13:23Z</time></trkpt><trkpt lat="46.5207966696" lon="12.0094793849"><ele>2103.50</ele><time>2013-07-26T07:13:30Z</time></trkpt><trkpt lat="46.5208266769" lon="12.0095066261"><ele>2104.94</ele><time>2013-07-26T07:13:40Z</time></trkpt><trkpt lat="46.5208266769" lon="12.0095066261"><ele>2106.87</ele><time>2013-07-26T07:13:52Z</time></trkpt><trkpt lat="46.5209192131" lon="12.0095440932"><ele>2108.79</ele><time>2013-07-26T07:14:01Z</time></trkpt><trkpt lat="46.5209635533" lon="12.0095674787"><ele>2110.23</ele><time>2013-07-26T07:14:11Z</time></trkpt><trkpt lat="46.5210529882" lon="12.0096150879"><ele>2111.67</ele><time>2013-07-26T07:14:21Z</time></trkpt><trkpt lat="46.5211223066" lon="12.0096381381"><ele>2113.60</ele><time>2013-07-26T07:14:31Z</time></trkpt><trkpt lat="46.5211896971" lon="12.0096893515"><ele>2115.04</ele><time>2013-07-26T07:14:42Z</time></trkpt><trkpt lat="46.5212432574" lon="12.0097247232"><ele>2116.96</ele><time>2013-07-26T07:14:53Z</time></trkpt><trkpt lat="46.5212979075" lon="12.0097874198"><ele>2118.88</ele><time>2013-07-26T07:15:03Z</time></trkpt><trkpt lat="46.5213346202" lon="12.0098393876"><ele>2119.84</ele><time>2013-07-26T07:15:10Z</time></trkpt><trkpt lat="46.5213873424" lon="12.0099368691"><ele>2122.73</ele><time>2013-07-26T07:15:22Z</time></trkpt><trkpt lat="46.5214319341" lon="12.0100147370"><ele>2124.17</ele><time>2013-07-26T07:15:33Z</time></trkpt><trkpt lat="46.5214768611" lon="12.0100823790"><ele>2125.61</ele><time>2013-07-26T07:15:43Z</time></trkpt><trkpt lat="46.5215190221" lon="12.0101831295"><ele>2127.05</ele><time>2013-07-26T07:15:54Z</time></trkpt><trkpt lat="46.5215555672" lon="12.0102709718"><ele>2128.50</ele><time>2013-07-26T07:16:04Z</time></trkpt><trkpt lat="46.5215528011" lon="12.0102793537"><ele>2128.98</ele><time>2013-07-26T07:16:05Z</time></trkpt><trkpt lat="46.5215826407" lon="12.0103807747"><ele>2130.42</ele><time>2013-07-26T07:16:15Z</time></trkpt><trkpt lat="46.5216163360" lon="12.0104809385"><ele>2131.38</ele><time>2013-07-26T07:16:26Z</time></trkpt><trkpt lat="46.5216260590" lon="12.0104944333"><ele>2132.34</ele><time>2013-07-26T07:16:28Z</time></trkpt><trkpt lat="46.5216656215" lon="12.0105867181"><ele>2133.78</ele><time>2013-07-26T07:16:39Z</time></trkpt><trkpt lat="46.5217040107" lon="12.0106822718"><ele>2135.71</ele><time>2013-07-26T07:16:49Z</time></trkpt><trkpt lat="46.5217511170" lon="12.0107834414"><ele>2137.15</ele><time>2013-07-26T07:17:01Z</time></trkpt><trkpt lat="46.5217910986" lon="12.0108687691"><ele>2139.07</ele><time>2013-07-26T07:17:12Z</time></trkpt><trkpt lat="46.5218092036" lon="12.0108958427"><ele>2139.55</ele><time>2013-07-26T07:17:20Z</time></trkpt><trkpt lat="46.5218542144" lon="12.0109052304"><ele>2140.99</ele><time>2013-07-26T07:17:28Z</time></trkpt><trkpt lat="46.5219135582" lon="12.0109535940"><ele>2142.92</ele><time>2013-07-26T07:17:39Z</time></trkpt><trkpt lat="46.5219521150" lon="12.0110219065"><ele>2144.36</ele><time>2013-07-26T07:17:49Z</time></trkpt><trkpt lat="46.5219983831" lon="12.0110975951"><ele>2145.80</ele><time>2013-07-26T07:17:59Z</time></trkpt><trkpt lat="46.5220637619" lon="12.0111552626"><ele>2147.24</ele><time>2013-07-26T07:18:09Z</time></trkpt><trkpt lat="46.5221115388" lon="12.0111919753"><ele>2148.68</ele><time>2013-07-26T07:18:19Z</time></trkpt><trkpt lat="46.5221531969" lon="12.0112282690"><ele>2151.09</ele><time>2013-07-26T07:18:29Z</time></trkpt><trkpt lat="46.5221972857" lon="12.0112947375"><ele>2153.01</ele><time>2013-07-26T07:18:39Z</time></trkpt><trkpt lat="46.5222398657" lon="12.0113519020"><ele>2153.97</ele><time>2013-07-26T07:18:49Z</time></trkpt><trkpt lat="46.5222977847" lon="12.0114384871"><ele>2155.89</ele><time>2013-07-26T07:19:01Z</time></trkpt><trkpt lat="46.5223173983" lon="12.0114911254"><ele>2156.37</ele><time>2013-07-26T07:19:07Z</time></trkpt><trkpt lat="46.5223415382" lon="12.0115386508"><ele>2156.86</ele><time>2013-07-26T07:19:11Z</time></trkpt><trkpt lat="46.5223540273" lon="12.0116132498"><ele>2157.82</ele><time>2013-07-26T07:19:22Z</time></trkpt><trkpt lat="46.5223933384" lon="12.0117155090"><ele>2158.30</ele><time>2013-07-26T07:19:31Z</time></trkpt><trkpt lat="46.5223957691" lon="12.0117264893"><ele>2158.78</ele><time>2013-07-26T07:19:40Z</time></trkpt><trkpt lat="46.5224167239" lon="12.0117830671"><ele>2160.22</ele><time>2013-07-26T07:19:50Z</time></trkpt><trkpt lat="46.5224692784" lon="12.0119129866"><ele>2161.66</ele><time>2013-07-26T07:20:00Z</time></trkpt><trkpt lat="46.5225203242" lon="12.0120148268"><ele>2161.66</ele><time>2013-07-26T07:20:09Z</time></trkpt><trkpt lat="46.5225369204" lon="12.0120395534"><ele>2161.66</ele><time>2013-07-26T07:20:11Z</time></trkpt><trkpt lat="46.5226046462" lon="12.0121579897"><ele>2162.14</ele><time>2013-07-26T07:20:22Z</time></trkpt><trkpt lat="46.5226817597" lon="12.0121988934"><ele>2164.06</ele><time>2013-07-26T07:20:31Z</time></trkpt><trkpt lat="46.5227491502" lon="12.0122250449"><ele>2165.03</ele><time>2013-07-26T07:20:41Z</time></trkpt><trkpt lat="46.5228077397" lon="12.0122882444"><ele>2166.95</ele><time>2013-07-26T07:20:52Z</time></trkpt><trkpt lat="46.5228665806" lon="12.0123186707"><ele>2168.87</ele><time>2013-07-26T07:21:03Z</time></trkpt><trkpt lat="46.5229497291" lon="12.0123588201"><ele>2170.31</ele><time>2013-07-26T07:21:15Z</time></trkpt><trkpt lat="46.5229566023" lon="12.0123625081"><ele>2170.79</ele><time>2013-07-26T07:21:16Z</time></trkpt><trkpt lat="46.5230002720" lon="12.0124271326"><ele>2171.27</ele><time>2013-07-26T07:21:23Z</time></trkpt><trkpt lat="46.5230659023" lon="12.0124961156"><ele>2172.72</ele><time>2013-07-26T07:21:33Z</time></trkpt><trkpt lat="46.5231255814" lon="12.0125806890"><ele>2173.68</ele><time>2013-07-26T07:21:43Z</time></trkpt><trkpt lat="46.5231888648" lon="12.0126668550"><ele>2175.12</ele><time>2013-07-26T07:21:55Z</time></trkpt><trkpt lat="46.5232547466" lon="12.0127657615"><ele>2176.56</ele><time>2013-07-26T07:22:07Z</time></trkpt><trkpt lat="46.5233086422" lon="12.0128464792"><ele>2179.45</ele><time>2013-07-26T07:22:18Z</time></trkpt><trkpt lat="46.5233802237" lon="12.0129353274"><ele>2180.41</ele><time>2013-07-26T07:22:30Z</time></trkpt><trkpt lat="46.5234361310" lon="12.0129429549"><ele>2180.89</ele><time>2013-07-26T07:22:38Z</time></trkpt><trkpt lat="46.5235150047" lon="12.0130362455"><ele>2182.81</ele><time>2013-07-26T07:22:49Z</time></trkpt><trkpt lat="46.5235241409" lon="12.0130451303"><ele>2182.33</ele><time>2013-07-26T07:22:50Z</time></trkpt><trkpt lat="46.5235351212" lon="12.0130733773"><ele>2182.81</ele><time>2013-07-26T07:22:52Z</time></trkpt><trkpt lat="46.5235613566" lon="12.0131573640"><ele>2184.25</ele><time>2013-07-26T07:23:03Z</time></trkpt><trkpt lat="46.5235899389" lon="12.0132036321"><ele>2185.69</ele><time>2013-07-26T07:23:12Z</time></trkpt><trkpt lat="46.5236064512" lon="12.0132946596"><ele>2187.62</ele><time>2013-07-26T07:23:22Z</time></trkpt><trkpt lat="46.5236242209" lon="12.0133851003"><ele>2188.58</ele><time>2013-07-26T07:23:31Z</time></trkpt><trkpt lat="46.5236460976" lon="12.0134814084"><ele>2190.02</ele><time>2013-07-26T07:23:42Z</time></trkpt><trkpt lat="46.5236734226" lon="12.0135510620"><ele>2191.94</ele><time>2013-07-26T07:23:52Z</time></trkpt><trkpt lat="46.5236782003" lon="12.0135816559"><ele>2192.90</ele><time>2013-07-26T07:24:01Z</time></trkpt><trkpt lat="46.5236844867" lon="12.0136478730"><ele>2193.87</ele><time>2013-07-26T07:24:10Z</time></trkpt><trkpt lat="46.5236854926" lon="12.0136849210"><ele>2195.79</ele><time>2013-07-26T07:24:18Z</time></trkpt><trkpt lat="46.5237007476" lon="12.0137891080"><ele>2197.71</ele><time>2013-07-26T07:24:31Z</time></trkpt><trkpt lat="46.5237114765" lon="12.0138244797"><ele>2199.15</ele><time>2013-07-26T07:24:40Z</time></trkpt><trkpt lat="46.5237467643" lon="12.0138001721"><ele>2200.59</ele><time>2013-07-26T07:24:51Z</time></trkpt><trkpt lat="46.5237512905" lon="12.0138009265"><ele>2201.08</ele><time>2013-07-26T07:25:00Z</time></trkpt><trkpt lat="46.5237787832" lon="12.0138528943"><ele>2203.00</ele><time>2013-07-26T07:25:12Z</time></trkpt><trkpt lat="46.5238206927" lon="12.0139568299"><ele>2204.92</ele><time>2013-07-26T07:25:22Z</time></trkpt><trkpt lat="46.5238643624" lon="12.0140602626"><ele>2206.36</ele><time>2013-07-26T07:25:34Z</time></trkpt><trkpt lat="46.5238777734" lon="12.0141665451"><ele>2207.81</ele><time>2013-07-26T07:25:46Z</time></trkpt><trkpt lat="46.5239168331" lon="12.0142392162"><ele>2209.25</ele><time>2013-07-26T07:25:57Z</time></trkpt><trkpt lat="46.5239506960" lon="12.0142164174"><ele>2211.17</ele><time>2013-07-26T07:26:08Z</time></trkpt><trkpt lat="46.5239625983" lon="12.0141932834"><ele>2211.65</ele><time>2013-07-26T07:26:19Z</time></trkpt><trkpt lat="46.5239625983" lon="12.0141932834"><ele>2211.65</ele><time>2013-07-26T07:26:37Z</time></trkpt><trkpt lat="46.5239747521" lon="12.0142133161"><ele>2213.09</ele><time>2013-07-26T07:26:48Z</time></trkpt><trkpt lat="46.5240134764" lon="12.0143423975"><ele>2214.05</ele><time>2013-07-26T07:27:00Z</time></trkpt><trkpt lat="46.5240335092" lon="12.0144267194"><ele>2215.50</ele><time>2013-07-26T07:27:10Z</time></trkpt><trkpt lat="46.5240386222" lon="12.0144520327"><ele>2216.46</ele><time>2013-07-26T07:27:22Z</time></trkpt><trkpt lat="46.5240641031" lon="12.0144979656"><ele>2217.90</ele><time>2013-07-26T07:27:33Z</time></trkpt><trkpt lat="46.5241019893" lon="12.0145378634"><ele>2219.34</ele><time>2013-07-26T07:27:42Z</time></trkpt><trkpt lat="46.5241241176" lon="12.0145620871"><ele>2220.30</ele><time>2013-07-26T07:27:51Z</time></trkpt><trkpt lat="46.5241276380" lon="12.0145785995"><ele>2222.22</ele><time>2013-07-26T07:28:02Z</time></trkpt><trkpt lat="46.5241610818" lon="12.0146397874"><ele>2224.15</ele><time>2013-07-26T07:28:11Z</time></trkpt><trkpt lat="46.5242098644" lon="12.0147227682"><ele>2225.59</ele><time>2013-07-26T07:28:21Z</time></trkpt><trkpt lat="46.5242454875" lon="12.0148212556"><ele>2226.55</ele><time>2013-07-26T07:28:32Z</time></trkpt><trkpt lat="46.5242521930" lon="12.0148376003"><ele>2227.03</ele><time>2013-07-26T07:28:34Z</time></trkpt><trkpt lat="46.5242873132" lon="12.0149303041"><ele>2227.99</ele><time>2013-07-26T07:28:46Z</time></trkpt><trkpt lat="46.5243129618" lon="12.0149526838"><ele>2229.43</ele><time>2013-07-26T07:28:55Z</time></trkpt><trkpt lat="46.5243516862" lon="12.0150365029"><ele>2230.88</ele><time>2013-07-26T07:29:06Z</time></trkpt><trkpt lat="46.5243593976" lon="12.0150649175"><ele>2231.36</ele><time>2013-07-26T07:29:17Z</time></trkpt><trkpt lat="46.5243593976" lon="12.0150649175"><ele>2231.36</ele><time>2013-07-26T07:29:39Z</time></trkpt><trkpt lat="46.5243588109" lon="12.0150655881"><ele>2231.84</ele><time>2013-07-26T07:29:59Z</time></trkpt><trkpt lat="46.5243568830" lon="12.0150669292"><ele>2231.84</ele><time>2013-07-26T07:30:08Z</time></trkpt><trkpt lat="46.5243857168" lon="12.0150985289"><ele>2232.80</ele><time>2013-07-26T07:30:16Z</time></trkpt><trkpt lat="46.5244118683" lon="12.0151199028"><ele>2233.76</ele><time>2013-07-26T07:30:24Z</time></trkpt><trkpt lat="46.5244232677" lon="12.0150862914"><ele>2235.20</ele><time>2013-07-26T07:30:32Z</time></trkpt><trkpt lat="46.5244206693" lon="12.0150344912"><ele>2236.16</ele><time>2013-07-26T07:30:37Z</time></trkpt><trkpt lat="46.5244396962" lon="12.0149033144"><ele>2237.61</ele><time>2013-07-26T07:30:48Z</time></trkpt><trkpt lat="46.5244435519" lon="12.0147665218"><ele>2238.57</ele><time>2013-07-26T07:30:59Z</time></trkpt><trkpt lat="46.5244772471" lon="12.0146661904"><ele>2240.01</ele><time>2013-07-26T07:31:11Z</time></trkpt><trkpt lat="46.5245112777" lon="12.0145869814"><ele>2242.41</ele><time>2013-07-26T07:31:22Z</time></trkpt><trkpt lat="46.5245139599" lon="12.0145289786"><ele>2244.33</ele><time>2013-07-26T07:31:34Z</time></trkpt><trkpt lat="46.5245308913" lon="12.0144039206"><ele>2246.26</ele><time>2013-07-26T07:31:47Z</time></trkpt><trkpt lat="46.5245406143" lon="12.0143377874"><ele>2247.70</ele><time>2013-07-26T07:31:56Z</time></trkpt><trkpt lat="46.5245650895" lon="12.0143316686"><ele>2248.66</ele><time>2013-07-26T07:32:05Z</time></trkpt><trkpt lat="46.5245644189" lon="12.0143370330"><ele>2250.10</ele><time>2013-07-26T07:32:15Z</time></trkpt><trkpt lat="46.5245842841" lon="12.0143816248"><ele>2251.54</ele><time>2013-07-26T07:32:26Z</time></trkpt><trkpt lat="46.5245901514" lon="12.0144057646"><ele>2252.51</ele><time>2013-07-26T07:32:36Z</time></trkpt><trkpt lat="46.5246160515" lon="12.0144452434"><ele>2253.95</ele><time>2013-07-26T07:32:44Z</time></trkpt><trkpt lat="46.5246555302" lon="12.0145170763"><ele>2254.91</ele><time>2013-07-26T07:32:53Z</time></trkpt><trkpt lat="46.5246792510" lon="12.0145405456"><ele>2255.39</ele><time>2013-07-26T07:32:56Z</time></trkpt><trkpt lat="46.5247297939" lon="12.0146644302"><ele>2256.83</ele><time>2013-07-26T07:33:08Z</time></trkpt><trkpt lat="46.5247634053" lon="12.0147603191"><ele>2258.75</ele><time>2013-07-26T07:33:20Z</time></trkpt><trkpt lat="46.5247957595" lon="12.0148602314"><ele>2260.20</ele><time>2013-07-26T07:33:32Z</time></trkpt><trkpt lat="46.5248202346" lon="12.0149289630"><ele>2261.64</ele><time>2013-07-26T07:33:41Z</time></trkpt><trkpt lat="46.5248657484" lon="12.0149930008"><ele>2262.60</ele><time>2013-07-26T07:33:51Z</time></trkpt><trkpt lat="46.5249172971" lon="12.0150224213"><ele>2265.00</ele><time>2013-07-26T07:34:03Z</time></trkpt><trkpt lat="46.5249613859" lon="12.0150816813"><ele>2266.93</ele><time>2013-07-26T07:34:17Z</time></trkpt><trkpt lat="46.5250161197" lon="12.0151646622"><ele>2268.37</ele><time>2013-07-26T07:34:26Z</time></trkpt><trkpt lat="46.5250602085" lon="12.0152549352"><ele>2270.29</ele><time>2013-07-26T07:34:38Z</time></trkpt><trkpt lat="46.5250931494" lon="12.0153000299"><ele>2272.21</ele><time>2013-07-26T07:34:49Z</time></trkpt><trkpt lat="46.5250931494" lon="12.0153000299"><ele>2273.17</ele><time>2013-07-26T07:34:59Z</time></trkpt><trkpt lat="46.5250931494" lon="12.0153000299"><ele>2275.10</ele><time>2013-07-26T07:35:09Z</time></trkpt><trkpt lat="46.5251009446" lon="12.0153079927"><ele>2275.58</ele><time>2013-07-26T07:35:16Z</time></trkpt><trkpt lat="46.5251553431" lon="12.0153877046"><ele>2277.02</ele><time>2013-07-26T07:35:26Z</time></trkpt><trkpt lat="46.5252187941" lon="12.0154589508"><ele>2277.98</ele><time>2013-07-26T07:35:38Z</time></trkpt><trkpt lat="46.5252438560" lon="12.0154881198"><ele>2278.46</ele><time>2013-07-26T07:35:40Z</time></trkpt><trkpt lat="46.5252757911" lon="12.0155387465"><ele>2278.46</ele><time>2013-07-26T07:35:43Z</time></trkpt><trkpt lat="46.5253603645" lon="12.0156231523"><ele>2279.90</ele><time>2013-07-26T07:35:53Z</time></trkpt><trkpt lat="46.5254152659" lon="12.0156935602"><ele>2281.83</ele><time>2013-07-26T07:36:04Z</time></trkpt><trkpt lat="46.5254396573" lon="12.0157071389"><ele>2281.83</ele><time>2013-07-26T07:36:08Z</time></trkpt><trkpt lat="46.5254751127" lon="12.0157599449"><ele>2283.75</ele><time>2013-07-26T07:36:18Z</time></trkpt><trkpt lat="46.5254704189" lon="12.0156780537"><ele>2285.19</ele><time>2013-07-26T07:36:28Z</time></trkpt><trkpt lat="46.5254624560" lon="12.0155905467"><ele>2286.15</ele><time>2013-07-26T07:36:38Z</time></trkpt><trkpt lat="46.5254940558" lon="12.0155817457"><ele>2287.59</ele><time>2013-07-26T07:36:47Z</time></trkpt><trkpt lat="46.5255283378" lon="12.0156374015"><ele>2288.56</ele><time>2013-07-26T07:36:57Z</time></trkpt><trkpt lat="46.5255665593" lon="12.0157039538"><ele>2290.48</ele><time>2013-07-26T07:37:09Z</time></trkpt><trkpt lat="46.5255689062" lon="12.0157103240"><ele>2291.44</ele><time>2013-07-26T07:37:21Z</time></trkpt><trkpt lat="46.5255689062" lon="12.0157103240"><ele>2292.88</ele><time>2013-07-26T07:37:33Z</time></trkpt><trkpt lat="46.5255881008" lon="12.0157316979"><ele>2293.84</ele><time>2013-07-26T07:37:42Z</time></trkpt><trkpt lat="46.5255917050" lon="12.0157432649"><ele>2295.77</ele><time>2013-07-26T07:37:51Z</time></trkpt><trkpt lat="46.5255917050" lon="12.0157432649"><ele>2296.73</ele><time>2013-07-26T07:37:59Z</time></trkpt><trkpt lat="46.5255917050" lon="12.0157432649"><ele>2298.17</ele><time>2013-07-26T07:38:09Z</time></trkpt><trkpt lat="46.5255917050" lon="12.0157432649"><ele>2299.13</ele><time>2013-07-26T07:38:17Z</time></trkpt><trkpt lat="46.5255995840" lon="12.0157533232"><ele>2300.09</ele><time>2013-07-26T07:38:28Z</time></trkpt><trkpt lat="46.5255995840" lon="12.0157533232"><ele>2300.57</ele><time>2013-07-26T07:38:32Z</time></trkpt><trkpt lat="46.5257577505" lon="12.0158512238"><ele>2302.01</ele><time>2013-07-26T07:38:43Z</time></trkpt><trkpt lat="46.5257577505" lon="12.0158512238"><ele>2302.98</ele><time>2013-07-26T07:38:52Z</time></trkpt><trkpt lat="46.5258077905" lon="12.0158291794"><ele>2304.42</ele><time>2013-07-26T07:39:00Z</time></trkpt><trkpt lat="46.5258112270" lon="12.0157689974"><ele>2305.38</ele><time>2013-07-26T07:39:09Z</time></trkpt><trkpt lat="46.5258121490" lon="12.0156886149"><ele>2306.82</ele><time>2013-07-26T07:39:19Z</time></trkpt><trkpt lat="46.5257986542" lon="12.0156140998"><ele>2308.26</ele><time>2013-07-26T07:39:27Z</time></trkpt><trkpt lat="46.5258326009" lon="12.0156340487"><ele>2309.22</ele><time>2013-07-26T07:39:37Z</time></trkpt><trkpt lat="46.5258561540" lon="12.0156548359"><ele>2310.67</ele><time>2013-07-26T07:39:46Z</time></trkpt><trkpt lat="46.5258561540" lon="12.0156548359"><ele>2311.63</ele><time>2013-07-26T07:39:55Z</time></trkpt><trkpt lat="46.5258627757" lon="12.0156363118"><ele>2312.59</ele><time>2013-07-26T07:40:05Z</time></trkpt><trkpt lat="46.5258627757" lon="12.0156363118"><ele>2314.51</ele><time>2013-07-26T07:40:15Z</time></trkpt><trkpt lat="46.5258623566" lon="12.0155825000"><ele>2314.99</ele><time>2013-07-26T07:40:26Z</time></trkpt><trkpt lat="46.5258623566" lon="12.0155825000"><ele>2316.43</ele><time>2013-07-26T07:40:36Z</time></trkpt><trkpt lat="46.5258623566" lon="12.0155825000"><ele>2317.40</ele><time>2013-07-26T07:40:45Z</time></trkpt><trkpt lat="46.5258623566" lon="12.0155825000"><ele>2318.84</ele><time>2013-07-26T07:40:55Z</time></trkpt><trkpt lat="46.5258688945" lon="12.0155835897"><ele>2319.80</ele><time>2013-07-26T07:41:06Z</time></trkpt><trkpt lat="46.5258906037" lon="12.0155471284"><ele>2320.76</ele><time>2013-07-26T07:41:21Z</time></trkpt><trkpt lat="46.5258980636" lon="12.0154722780"><ele>2321.72</ele><time>2013-07-26T07:41:29Z</time></trkpt><trkpt lat="46.5259078704" lon="12.0154043846"><ele>2322.68</ele><time>2013-07-26T07:41:39Z</time></trkpt><trkpt lat="46.5259120613" lon="12.0153345633"><ele>2323.64</ele><time>2013-07-26T07:41:49Z</time></trkpt><trkpt lat="46.5259169228" lon="12.0152287837"><ele>2324.61</ele><time>2013-07-26T07:42:00Z</time></trkpt><trkpt lat="46.5259000752" lon="12.0151324756"><ele>2326.05</ele><time>2013-07-26T07:42:11Z</time></trkpt><trkpt lat="46.5258949623" lon="12.0150564518"><ele>2327.97</ele><time>2013-07-26T07:42:21Z</time></trkpt><trkpt lat="46.5258844011" lon="12.0149973594"><ele>2328.93</ele><time>2013-07-26T07:42:29Z</time></trkpt><trkpt lat="46.5258844011" lon="12.0149973594"><ele>2329.41</ele><time>2013-07-26T07:42:39Z</time></trkpt><trkpt lat="46.5258867480" lon="12.0149755664"><ele>2330.85</ele><time>2013-07-26T07:42:49Z</time></trkpt><trkpt lat="46.5258991532" lon="12.0148899034"><ele>2332.30</ele><time>2013-07-26T07:43:00Z</time></trkpt><trkpt lat="46.5259284060" lon="12.0148394443"><ele>2333.74</ele><time>2013-07-26T07:43:10Z</time></trkpt><trkpt lat="46.5259474330" lon="12.0148785040"><ele>2334.70</ele><time>2013-07-26T07:43:18Z</time></trkpt><trkpt lat="46.5259593353" lon="12.0149194077"><ele>2335.66</ele><time>2013-07-26T07:43:25Z</time></trkpt><trkpt lat="46.5259844810" lon="12.0149420388"><ele>2337.10</ele><time>2013-07-26T07:43:33Z</time></trkpt><trkpt lat="46.5259844810" lon="12.0149420388"><ele>2337.58</ele><time>2013-07-26T07:43:42Z</time></trkpt><trkpt lat="46.5259974729" lon="12.0148830302"><ele>2339.02</ele><time>2013-07-26T07:43:53Z</time></trkpt><trkpt lat="46.5260007419" lon="12.0148511790"><ele>2339.51</ele><time>2013-07-26T07:43:56Z</time></trkpt><trkpt lat="46.5260031726" lon="12.0148013067"><ele>2339.99</ele><time>2013-07-26T07:44:01Z</time></trkpt><trkpt lat="46.5260197688" lon="12.0147439744"><ele>2341.91</ele><time>2013-07-26T07:44:12Z</time></trkpt><trkpt lat="46.5260197688" lon="12.0147439744"><ele>2342.39</ele><time>2013-07-26T07:44:23Z</time></trkpt><trkpt lat="46.5260851476" lon="12.0148548670"><ele>2343.83</ele><time>2013-07-26T07:44:33Z</time></trkpt><trkpt lat="46.5261324216" lon="12.0149514265"><ele>2344.31</ele><time>2013-07-26T07:44:43Z</time></trkpt><trkpt lat="46.5261597466" lon="12.0149846189"><ele>2344.79</ele><time>2013-07-26T07:44:47Z</time></trkpt><trkpt lat="46.5262028296" lon="12.0150974393"><ele>2344.79</ele><time>2013-07-26T07:44:56Z</time></trkpt><trkpt lat="46.5262204316" lon="12.0151411090"><ele>2344.79</ele><time>2013-07-26T07:44:59Z</time></trkpt><trkpt lat="46.5262459964" lon="12.0152562764"><ele>2344.79</ele><time>2013-07-26T07:45:08Z</time></trkpt><trkpt lat="46.5262547974" lon="12.0153138600"><ele>2345.75</ele><time>2013-07-26T07:45:12Z</time></trkpt><trkpt lat="46.5262908395" lon="12.0153529197"><ele>2347.20</ele><time>2013-07-26T07:45:21Z</time></trkpt><trkpt lat="46.5262908395" lon="12.0153529197"><ele>2348.64</ele><time>2013-07-26T07:45:31Z</time></trkpt><trkpt lat="46.5262908395" lon="12.0153529197"><ele>2350.08</ele><time>2013-07-26T07:45:41Z</time></trkpt><trkpt lat="46.5262908395" lon="12.0153529197"><ele>2351.52</ele><time>2013-07-26T07:45:51Z</time></trkpt><trkpt lat="46.5263694618" lon="12.0154459588"><ele>2352.96</ele><time>2013-07-26T07:46:01Z</time></trkpt><trkpt lat="46.5263694618" lon="12.0154459588"><ele>2353.44</ele><time>2013-07-26T07:46:05Z</time></trkpt><trkpt lat="46.5264232736" lon="12.0154510718"><ele>2354.41</ele><time>2013-07-26T07:46:16Z</time></trkpt><trkpt lat="46.5264270455" lon="12.0154042169"><ele>2355.85</ele><time>2013-07-26T07:46:26Z</time></trkpt><trkpt lat="46.5264154784" lon="12.0153320488"><ele>2356.81</ele><time>2013-07-26T07:46:38Z</time></trkpt><trkpt lat="46.5264070127" lon="12.0152812544"><ele>2358.25</ele><time>2013-07-26T07:46:47Z</time></trkpt><trkpt lat="46.5264106169" lon="12.0152363274"><ele>2359.21</ele><time>2013-07-26T07:46:56Z</time></trkpt><trkpt lat="46.5264086053" lon="12.0151612256"><ele>2360.65</ele><time>2013-07-26T07:47:06Z</time></trkpt><trkpt lat="46.5264100302" lon="12.0151075814"><ele>2361.62</ele><time>2013-07-26T07:47:14Z</time></trkpt><trkpt lat="46.5264178254" lon="12.0151105151"><ele>2363.06</ele><time>2013-07-26T07:47:24Z</time></trkpt><trkpt lat="46.5264342539" lon="12.0150985289"><ele>2364.50</ele><time>2013-07-26T07:47:33Z</time></trkpt><trkpt lat="46.5264370199" lon="12.0150413644"><ele>2365.46</ele><time>2013-07-26T07:47:42Z</time></trkpt><trkpt lat="46.5264260396" lon="12.0149521809"><ele>2366.42</ele><time>2013-07-26T07:47:53Z</time></trkpt><trkpt lat="46.5264187474" lon="12.0148940943"><ele>2367.86</ele><time>2013-07-26T07:48:03Z</time></trkpt><trkpt lat="46.5264049172" lon="12.0148314815"><ele>2369.31</ele><time>2013-07-26T07:48:13Z</time></trkpt><trkpt lat="46.5263892431" lon="12.0147721376"><ele>2370.75</ele><time>2013-07-26T07:48:23Z</time></trkpt><trkpt lat="46.5274429321" lon="12.0093010180"><ele>2709.61</ele><time>2013-07-26T09:34:47Z</time></trkpt><trkpt lat="46.5274482127" lon="12.0092345495"><ele>2706.25</ele><time>2013-07-26T09:34:48Z</time></trkpt><trkpt lat="46.5274577681" lon="12.0092202164"><ele>2702.88</ele><time>2013-07-26T09:34:50Z</time></trkpt><trkpt lat="46.5274580196" lon="12.0092277601"><ele>2706.25</ele><time>2013-07-26T09:34:51Z</time></trkpt><trkpt lat="46.5274576005" lon="12.0092246588"><ele>2708.65</ele><time>2013-07-26T09:35:01Z</time></trkpt><trkpt lat="46.5274541639" lon="12.0092178695"><ele>2710.09</ele><time>2013-07-26T09:35:03Z</time></trkpt><trkpt lat="46.5274585225" lon="12.0091927238"><ele>2713.46</ele><time>2013-07-26T09:35:07Z</time></trkpt><trkpt lat="46.5274678264" lon="12.0091954898"><ele>2715.86</ele><time>2013-07-26T09:35:12Z</time></trkpt><trkpt lat="46.5274850931" lon="12.0092125051"><ele>2720.19</ele><time>2013-07-26T09:35:16Z</time></trkpt><trkpt lat="46.5274876077" lon="12.0092086494"><ele>2720.67</ele><time>2013-07-26T09:35:18Z</time></trkpt><trkpt lat="46.5274850931" lon="12.0092064701"><ele>2724.03</ele><time>2013-07-26T09:35:24Z</time></trkpt><trkpt lat="46.5274912119" lon="12.0091881137"><ele>2726.44</ele><time>2013-07-26T09:35:29Z</time></trkpt><trkpt lat="46.5274921339" lon="12.0091655664"><ele>2729.32</ele><time>2013-07-26T09:35:33Z</time></trkpt><trkpt lat="46.5274882782" lon="12.0091560949"><ele>2729.80</ele><time>2013-07-26T09:35:36Z</time></trkpt><trkpt lat="46.5274917148" lon="12.0091166161"><ele>2732.68</ele><time>2013-07-26T09:35:42Z</time></trkpt><trkpt lat="46.5274992585" lon="12.0091225673"><ele>2735.57</ele><time>2013-07-26T09:35:49Z</time></trkpt><trkpt lat="46.5274727717" lon="12.0091375709"><ele>2739.41</ele><time>2013-07-26T09:35:59Z</time></trkpt><trkpt lat="46.5275171958" lon="12.0092064701"><ele>2741.82</ele><time>2013-07-26T09:36:09Z</time></trkpt><trkpt lat="46.5275380667" lon="12.0092861820"><ele>2743.74</ele><time>2013-07-26T09:36:22Z</time></trkpt><trkpt lat="46.5275454428" lon="12.0092871040"><ele>2744.70</ele><time>2013-07-26T09:36:40Z</time></trkpt><trkpt lat="46.5275454428" lon="12.0092871040"><ele>2744.70</ele><time>2013-07-26T09:37:04Z</time></trkpt><trkpt lat="46.5275481250" lon="12.0092828292"><ele>2743.26</ele><time>2013-07-26T09:37:14Z</time></trkpt><trkpt lat="46.5276161861" lon="12.0092518162"><ele>2743.26</ele><time>2013-07-26T09:37:25Z</time></trkpt><trkpt lat="46.5276231430" lon="12.0092253294"><ele>2743.26</ele><time>2013-07-26T09:37:27Z</time></trkpt><trkpt lat="46.5276446007" lon="12.0090771373"><ele>2744.70</ele><time>2013-07-26T09:37:38Z</time></trkpt><trkpt lat="46.5276610292" lon="12.0089683402"><ele>2746.14</ele><time>2013-07-26T09:37:46Z</time></trkpt><trkpt lat="46.5278864186" lon="12.0077367872"><ele>2761.52</ele><time>2013-07-26T09:40:22Z</time></trkpt><trkpt lat="46.5279153362" lon="12.0077193528"><ele>2762.00</ele><time>2013-07-26T09:40:25Z</time></trkpt><trkpt lat="46.5279814694" lon="12.0076916087"><ele>2762.97</ele><time>2013-07-26T09:40:32Z</time></trkpt><trkpt lat="46.5280511230" lon="12.0076542255"><ele>2763.93</ele><time>2013-07-26T09:40:39Z</time></trkpt><trkpt lat="46.5281366184" lon="12.0076088794"><ele>2763.45</ele><time>2013-07-26T09:40:49Z</time></trkpt><trkpt lat="46.5282090381" lon="12.0075506251"><ele>2765.85</ele><time>2013-07-26T09:40:59Z</time></trkpt><trkpt lat="46.5282395482" lon="12.0075305086"><ele>2767.29</ele><time>2013-07-26T09:41:08Z</time></trkpt><trkpt lat="46.5282448288" lon="12.0074874256"><ele>2768.73</ele><time>2013-07-26T09:41:18Z</time></trkpt><trkpt lat="46.5282818768" lon="12.0074938796"><ele>2769.70</ele><time>2013-07-26T09:41:27Z</time></trkpt><trkpt lat="46.5282947849" lon="12.0074776188"><ele>2771.14</ele><time>2013-07-26T09:41:40Z</time></trkpt><trkpt lat="46.5283002332" lon="12.0074705780"><ele>2771.14</ele><time>2013-07-26T09:41:41Z</time></trkpt><trkpt lat="46.5283727366" lon="12.0074369665"><ele>2772.58</ele><time>2013-07-26T09:41:52Z</time></trkpt><trkpt lat="46.5283949487" lon="12.0074186940"><ele>2773.06</ele><time>2013-07-26T09:42:01Z</time></trkpt><trkpt lat="46.5284055099" lon="12.0074081328"><ele>2772.58</ele><time>2013-07-26T09:42:16Z</time></trkpt><trkpt lat="46.5284792706" lon="12.0074318536"><ele>2772.10</ele><time>2013-07-26T09:42:27Z</time></trkpt><trkpt lat="46.5284855571" lon="12.0074258186"><ele>2772.58</ele><time>2013-07-26T09:42:28Z</time></trkpt><trkpt lat="46.5285030752" lon="12.0074091386"><ele>2772.10</ele><time>2013-07-26T09:42:30Z</time></trkpt><trkpt lat="46.5285519417" lon="12.0074140001"><ele>2771.62</ele><time>2013-07-26T09:42:35Z</time></trkpt><trkpt lat="46.5286509320" lon="12.0073849987"><ele>2770.18</ele><time>2013-07-26T09:42:46Z</time></trkpt><trkpt lat="46.5286578052" lon="12.0073793828"><ele>2770.18</ele><time>2013-07-26T09:42:47Z</time></trkpt><trkpt lat="46.5286733117" lon="12.0073657203"><ele>2770.18</ele><time>2013-07-26T09:42:49Z</time></trkpt><trkpt lat="46.5287766606" lon="12.0072747767"><ele>2769.70</ele><time>2013-07-26T09:43:01Z</time></trkpt><trkpt lat="46.5288768243" lon="12.0071443543"><ele>2769.21</ele><time>2013-07-26T09:43:13Z</time></trkpt><trkpt lat="46.5288988687" lon="12.0071358886"><ele>2768.25</ele><time>2013-07-26T09:43:15Z</time></trkpt><trkpt lat="46.5289282054" lon="12.0070645586"><ele>2768.73</ele><time>2013-07-26T09:43:20Z</time></trkpt><trkpt lat="46.5289235953" lon="12.0069526602"><ele>2770.18</ele><time>2013-07-26T09:43:30Z</time></trkpt><trkpt lat="46.5289185662" lon="12.0069210604"><ele>2770.66</ele><time>2013-07-26T09:43:33Z</time></trkpt><trkpt lat="46.5289121121" lon="12.0068696793"><ele>2771.14</ele><time>2013-07-26T09:43:37Z</time></trkpt><trkpt lat="46.5289354976" lon="12.0067571942"><ele>2772.58</ele><time>2013-07-26T09:43:46Z</time></trkpt><trkpt lat="46.5289970208" lon="12.0066387579"><ele>2773.06</ele><time>2013-07-26T09:43:56Z</time></trkpt><trkpt lat="46.5290051512" lon="12.0066280290"><ele>2773.54</ele><time>2013-07-26T09:43:57Z</time></trkpt><trkpt lat="46.5290736314" lon="12.0065230876"><ele>2772.58</ele><time>2013-07-26T09:44:06Z</time></trkpt><trkpt lat="46.5291205700" lon="12.0063979458"><ele>2772.58</ele><time>2013-07-26T09:44:15Z</time></trkpt><trkpt lat="46.5291356575" lon="12.0063569583"><ele>2772.58</ele><time>2013-07-26T09:44:18Z</time></trkpt><trkpt lat="46.5291464701" lon="12.0062875561"><ele>2772.10</ele><time>2013-07-26T09:44:28Z</time></trkpt><trkpt lat="46.5291464701" lon="12.0062875561"><ele>2772.10</ele><time>2013-07-26T09:44:49Z</time></trkpt><trkpt lat="46.5291494876" lon="12.0062828623"><ele>2772.58</ele><time>2013-07-26T09:45:05Z</time></trkpt><trkpt lat="46.5291494876" lon="12.0062828623"><ele>2772.10</ele><time>2013-07-26T09:45:25Z</time></trkpt><trkpt lat="46.5291481465" lon="12.0062776655"><ele>2772.10</ele><time>2013-07-26T09:45:42Z</time></trkpt><trkpt lat="46.5291893855" lon="12.0062046591"><ele>2771.62</ele><time>2013-07-26T09:45:54Z</time></trkpt><trkpt lat="46.5291950013" lon="12.0061883982"><ele>2771.62</ele><time>2013-07-26T09:45:55Z</time></trkpt><trkpt lat="46.5292017907" lon="12.0061480813"><ele>2771.14</ele><time>2013-07-26T09:45:58Z</time></trkpt><trkpt lat="46.5292264335" lon="12.0061188284"><ele>2771.14</ele><time>2013-07-26T09:46:01Z</time></trkpt><trkpt lat="46.5292698517" lon="12.0060221013"><ele>2770.18</ele><time>2013-07-26T09:46:10Z</time></trkpt><trkpt lat="46.5292721987" lon="12.0060016494"><ele>2771.14</ele><time>2013-07-26T09:46:12Z</time></trkpt><trkpt lat="46.5292810835" lon="12.0059699658"><ele>2771.14</ele><time>2013-07-26T09:46:15Z</time></trkpt><trkpt lat="46.5293327998" lon="12.0058610849"><ele>2771.14</ele><time>2013-07-26T09:46:26Z</time></trkpt><trkpt lat="46.5293863602" lon="12.0057869051"><ele>2771.14</ele><time>2013-07-26T09:46:37Z</time></trkpt><trkpt lat="46.5294251684" lon="12.0056807902"><ele>2772.10</ele><time>2013-07-26T09:46:47Z</time></trkpt><trkpt lat="46.5294127632" lon="12.0056109689"><ele>2772.58</ele><time>2013-07-26T09:46:56Z</time></trkpt><trkpt lat="46.5294234920" lon="12.0055200253"><ele>2774.02</ele><time>2013-07-26T09:47:06Z</time></trkpt><trkpt lat="46.5294345561" lon="12.0054748468"><ele>2774.98</ele><time>2013-07-26T09:47:10Z</time></trkpt><trkpt lat="46.5294464584" lon="12.0054333564"><ele>2774.50</ele><time>2013-07-26T09:47:14Z</time></trkpt><trkpt lat="46.5294821654" lon="12.0053524710"><ele>2774.02</ele><time>2013-07-26T09:47:24Z</time></trkpt><trkpt lat="46.5295035392" lon="12.0053168479"><ele>2773.54</ele><time>2013-07-26T09:47:32Z</time></trkpt><trkpt lat="46.5295136813" lon="12.0053195301"><ele>2772.10</ele><time>2013-07-26T09:47:40Z</time></trkpt><trkpt lat="46.5295316186" lon="12.0053597633"><ele>2773.06</ele><time>2013-07-26T09:47:51Z</time></trkpt><trkpt lat="46.5295477957" lon="12.0053547341"><ele>2771.62</ele><time>2013-07-26T09:48:00Z</time></trkpt><trkpt lat="46.5295710135" lon="12.0053935423"><ele>2770.66</ele><time>2013-07-26T09:48:09Z</time></trkpt><trkpt lat="46.5295889508" lon="12.0053606015"><ele>2769.70</ele><time>2013-07-26T09:48:19Z</time></trkpt><trkpt lat="46.5295901243" lon="12.0053119026"><ele>2768.25</ele><time>2013-07-26T09:48:26Z</time></trkpt><trkpt lat="46.5295674931" lon="12.0052490383"><ele>2767.77</ele><time>2013-07-26T09:48:37Z</time></trkpt><trkpt lat="46.5295486338" lon="12.0051808096"><ele>2766.81</ele><time>2013-07-26T09:48:46Z</time></trkpt><trkpt lat="46.5295610391" lon="12.0051189512"><ele>2765.85</ele><time>2013-07-26T09:48:51Z</time></trkpt><trkpt lat="46.5295849275" lon="12.0049851760"><ele>2766.81</ele><time>2013-07-26T09:49:01Z</time></trkpt><trkpt lat="46.5295910463" lon="12.0049474575"><ele>2767.29</ele><time>2013-07-26T09:49:04Z</time></trkpt><trkpt lat="46.5296013560" lon="12.0049192943"><ele>2767.77</ele><time>2013-07-26T09:49:06Z</time></trkpt><trkpt lat="46.5296521503" lon="12.0048089884"><ele>2769.70</ele><time>2013-07-26T09:49:17Z</time></trkpt><trkpt lat="46.5296943951" lon="12.0047564339"><ele>2771.14</ele><time>2013-07-26T09:49:26Z</time></trkpt><trkpt lat="46.5296905395" lon="12.0046778116"><ele>2772.10</ele><time>2013-07-26T09:49:36Z</time></trkpt><trkpt lat="46.5296800621" lon="12.0046139415"><ele>2773.06</ele><time>2013-07-26T09:49:45Z</time></trkpt><trkpt lat="46.5296571795" lon="12.0045745466"><ele>2774.50</ele><time>2013-07-26T09:49:54Z</time></trkpt><trkpt lat="46.5296670701" lon="12.0045053121"><ele>2774.98</ele><time>2013-07-26T09:50:02Z</time></trkpt><trkpt lat="46.5296670701" lon="12.0045053121"><ele>2774.98</ele><time>2013-07-26T09:50:17Z</time></trkpt><trkpt lat="46.5296793915" lon="12.0044361614"><ele>2775.46</ele><time>2013-07-26T09:50:23Z</time></trkpt><trkpt lat="46.5296786372" lon="12.0042990334"><ele>2776.42</ele><time>2013-07-26T09:50:34Z</time></trkpt><trkpt lat="46.5296762064" lon="12.0041983668"><ele>2776.91</ele><time>2013-07-26T09:50:41Z</time></trkpt><trkpt lat="46.5296865162" lon="12.0041536912"><ele>2776.91</ele><time>2013-07-26T09:50:45Z</time></trkpt><trkpt lat="46.5296834987" lon="12.0039991289"><ele>2778.35</ele><time>2013-07-26T09:50:57Z</time></trkpt><trkpt lat="46.5297140088" lon="12.0038956124"><ele>2777.87</ele><time>2013-07-26T09:51:06Z</time></trkpt><trkpt lat="46.5297236480" lon="12.0037595741"><ele>2779.31</ele><time>2013-07-26T09:51:16Z</time></trkpt><trkpt lat="46.5297321975" lon="12.0036304928"><ele>2780.75</ele><time>2013-07-26T09:51:27Z</time></trkpt><trkpt lat="46.5297274198" lon="12.0035127271"><ele>2782.19</ele><time>2013-07-26T09:51:37Z</time></trkpt><trkpt lat="46.5297247376" lon="12.0033935364"><ele>2783.63</ele><time>2013-07-26T09:51:47Z</time></trkpt><trkpt lat="46.5297341254" lon="12.0033046044"><ele>2784.60</ele><time>2013-07-26T09:51:58Z</time></trkpt><trkpt lat="46.5297354665" lon="12.0032998268"><ele>2784.12</ele><time>2013-07-26T09:52:14Z</time></trkpt><trkpt lat="46.5297354665" lon="12.0032998268"><ele>2784.12</ele><time>2013-07-26T09:52:30Z</time></trkpt><trkpt lat="46.5297354665" lon="12.0032998268"><ele>2784.12</ele><time>2013-07-26T09:52:46Z</time></trkpt><trkpt lat="46.5297357179" lon="12.0032996591"><ele>2784.12</ele><time>2013-07-26T09:53:03Z</time></trkpt><trkpt lat="46.5297357179" lon="12.0032996591"><ele>2783.63</ele><time>2013-07-26T09:53:26Z</time></trkpt><trkpt lat="46.5297363047" lon="12.0033012517"><ele>2783.63</ele><time>2013-07-26T09:53:48Z</time></trkpt><trkpt lat="46.5297363047" lon="12.0033012517"><ele>2783.63</ele><time>2013-07-26T09:54:13Z</time></trkpt><trkpt lat="46.5297357179" lon="12.0033010002"><ele>2783.63</ele><time>2013-07-26T09:54:41Z</time></trkpt><trkpt lat="46.5297350474" lon="12.0033025090"><ele>2783.63</ele><time>2013-07-26T09:55:07Z</time></trkpt><trkpt lat="46.5297346283" lon="12.0033031795"><ele>2783.63</ele><time>2013-07-26T09:55:40Z</time></trkpt><trkpt lat="46.5297346283" lon="12.0033031795"><ele>2783.63</ele><time>2013-07-26T09:56:06Z</time></trkpt><trkpt lat="46.5297342930" lon="12.0033030119"><ele>2784.12</ele><time>2013-07-26T09:56:35Z</time></trkpt><trkpt lat="46.5297336224" lon="12.0033042692"><ele>2783.63</ele><time>2013-07-26T09:57:00Z</time></trkpt><trkpt lat="46.5297336224" lon="12.0033042692"><ele>2783.15</ele><time>2013-07-26T09:57:22Z</time></trkpt><trkpt lat="46.5297335386" lon="12.0033046883"><ele>2783.15</ele><time>2013-07-26T09:57:48Z</time></trkpt><trkpt lat="46.5297335386" lon="12.0033046883"><ele>2783.63</ele><time>2013-07-26T09:58:12Z</time></trkpt><trkpt lat="46.5297342930" lon="12.0033030957"><ele>2783.15</ele><time>2013-07-26T09:58:37Z</time></trkpt><trkpt lat="46.5297342930" lon="12.0033014193"><ele>2783.15</ele><time>2013-07-26T09:59:00Z</time></trkpt><trkpt lat="46.5297342930" lon="12.0033014193"><ele>2783.63</ele><time>2013-07-26T09:59:27Z</time></trkpt><trkpt lat="46.5297327843" lon="12.0033014193"><ele>2783.63</ele><time>2013-07-26T09:59:49Z</time></trkpt><trkpt lat="46.5297327843" lon="12.0033014193"><ele>2784.12</ele><time>2013-07-26T10:00:11Z</time></trkpt><trkpt lat="46.5297339577" lon="12.0033013355"><ele>2784.60</ele><time>2013-07-26T10:00:37Z</time></trkpt><trkpt lat="46.5297342092" lon="12.0033012517"><ele>2784.60</ele><time>2013-07-26T10:01:00Z</time></trkpt><trkpt lat="46.5297342092" lon="12.0033012517"><ele>2784.60</ele><time>2013-07-26T10:01:24Z</time></trkpt><trkpt lat="46.5297339577" lon="12.0032994077"><ele>2784.12</ele><time>2013-07-26T10:01:45Z</time></trkpt><trkpt lat="46.5297339577" lon="12.0032994077"><ele>2784.60</ele><time>2013-07-26T10:02:02Z</time></trkpt><trkpt lat="46.5297324490" lon="12.0033055265"><ele>2784.12</ele><time>2013-07-26T10:02:25Z</time></trkpt><trkpt lat="46.5297324490" lon="12.0033055265"><ele>2784.60</ele><time>2013-07-26T10:02:44Z</time></trkpt><trkpt lat="46.5297313593" lon="12.0033041853"><ele>2784.60</ele><time>2013-07-26T10:03:09Z</time></trkpt><trkpt lat="46.5297312755" lon="12.0033041853"><ele>2783.63</ele><time>2013-07-26T10:03:36Z</time></trkpt><trkpt lat="46.5297312755" lon="12.0033041853"><ele>2783.63</ele><time>2013-07-26T10:04:04Z</time></trkpt><trkpt lat="46.5297320299" lon="12.0033030957"><ele>2784.12</ele><time>2013-07-26T10:04:35Z</time></trkpt><trkpt lat="46.5297320299" lon="12.0033040177"><ele>2783.15</ele><time>2013-07-26T10:05:00Z</time></trkpt><trkpt lat="46.5297320299" lon="12.0033040177"><ele>2783.63</ele><time>2013-07-26T10:05:26Z</time></trkpt><trkpt lat="46.5297327004" lon="12.0033042692"><ele>2783.15</ele><time>2013-07-26T10:05:51Z</time></trkpt><trkpt lat="46.5297327004" lon="12.0033042692"><ele>2783.15</ele><time>2013-07-26T10:06:10Z</time></trkpt><trkpt lat="46.5297336224" lon="12.0033030119"><ele>2783.63</ele><time>2013-07-26T10:06:31Z</time></trkpt><trkpt lat="46.5297336224" lon="12.0033030119"><ele>2783.63</ele><time>2013-07-26T10:06:52Z</time></trkpt><trkpt lat="46.5297327004" lon="12.0033047721"><ele>2783.15</ele><time>2013-07-26T10:07:15Z</time></trkpt><trkpt lat="46.5297329519" lon="12.0033062808"><ele>2783.15</ele><time>2013-07-26T10:07:38Z</time></trkpt><trkpt lat="46.5297329519" lon="12.0033062808"><ele>2783.63</ele><time>2013-07-26T10:08:01Z</time></trkpt><trkpt lat="46.5297337063" lon="12.0033070352"><ele>2783.63</ele><time>2013-07-26T10:08:31Z</time></trkpt><trkpt lat="46.5297351312" lon="12.0033083763"><ele>2783.15</ele><time>2013-07-26T10:08:57Z</time></trkpt><trkpt lat="46.5297351312" lon="12.0033083763"><ele>2783.15</ele><time>2013-07-26T10:09:21Z</time></trkpt><trkpt lat="46.5297353826" lon="12.0033077057"><ele>2783.15</ele><time>2013-07-26T10:09:53Z</time></trkpt><trkpt lat="46.5297374781" lon="12.0033073705"><ele>2782.67</ele><time>2013-07-26T10:10:19Z</time></trkpt><trkpt lat="46.5297374781" lon="12.0033073705"><ele>2783.15</ele><time>2013-07-26T10:10:44Z</time></trkpt><trkpt lat="46.5297375619" lon="12.0033066999"><ele>2782.67</ele><time>2013-07-26T10:11:10Z</time></trkpt><trkpt lat="46.5297375619" lon="12.0033066999"><ele>2783.15</ele><time>2013-07-26T10:11:28Z</time></trkpt><trkpt lat="46.5297381487" lon="12.0033084601"><ele>2782.67</ele><time>2013-07-26T10:11:50Z</time></trkpt><trkpt lat="46.5297381487" lon="12.0033084601"><ele>2782.67</ele><time>2013-07-26T10:12:10Z</time></trkpt><trkpt lat="46.5297379810" lon="12.0033114776"><ele>2783.63</ele><time>2013-07-26T10:12:19Z</time></trkpt><trkpt lat="46.5297404956" lon="12.0033083763"><ele>2783.63</ele><time>2013-07-26T10:12:31Z</time></trkpt><trkpt lat="46.5297406632" lon="12.0033560693"><ele>2783.15</ele><time>2013-07-26T10:12:37Z</time></trkpt><trkpt lat="46.5297076385" lon="12.0035107154"><ele>2782.19</ele><time>2013-07-26T10:12:49Z</time></trkpt><trkpt lat="46.5296927188" lon="12.0036071911"><ele>2782.19</ele><time>2013-07-26T10:12:58Z</time></trkpt><trkpt lat="46.5297228936" lon="12.0036882441"><ele>2780.27</ele><time>2013-07-26T10:13:08Z</time></trkpt><trkpt lat="46.5297127515" lon="12.0037492644"><ele>2779.31</ele><time>2013-07-26T10:13:12Z</time></trkpt><trkpt lat="46.5297206305" lon="12.0037982147"><ele>2778.83</ele><time>2013-07-26T10:13:15Z</time></trkpt><trkpt lat="46.5297130868" lon="12.0038739871"><ele>2778.35</ele><time>2013-07-26T10:13:20Z</time></trkpt><trkpt lat="46.5297192894" lon="12.0038965344"><ele>2777.87</ele><time>2013-07-26T10:13:22Z</time></trkpt><trkpt lat="46.5296978317" lon="12.0040314831"><ele>2777.39</ele><time>2013-07-26T10:13:31Z</time></trkpt><trkpt lat="46.5296984185" lon="12.0041658450"><ele>2775.94</ele><time>2013-07-26T10:13:41Z</time></trkpt><trkpt lat="46.5296723507" lon="12.0043189824"><ele>2775.94</ele><time>2013-07-26T10:13:53Z</time></trkpt><trkpt lat="46.5296847560" lon="12.0044511650"><ele>2774.50</ele><time>2013-07-26T10:14:04Z</time></trkpt><trkpt lat="46.5296698362" lon="12.0045057312"><ele>2774.50</ele><time>2013-07-26T10:14:07Z</time></trkpt><trkpt lat="46.5296668187" lon="12.0046097506"><ele>2772.58</ele><time>2013-07-26T10:14:17Z</time></trkpt><trkpt lat="46.5296889469" lon="12.0046608802"><ele>2770.66</ele><time>2013-07-26T10:14:26Z</time></trkpt><trkpt lat="46.5297073871" lon="12.0047503151"><ele>2769.21</ele><time>2013-07-26T10:14:35Z</time></trkpt><trkpt lat="46.5296526533" lon="12.0048253331"><ele>2768.25</ele><time>2013-07-26T10:14:45Z</time></trkpt><trkpt lat="46.5296085645" lon="12.0049535763"><ele>2765.85</ele><time>2013-07-26T10:14:57Z</time></trkpt><trkpt lat="46.5296148509" lon="12.0049802307"><ele>2764.89</ele><time>2013-07-26T10:15:02Z</time></trkpt><trkpt lat="46.5296104085" lon="12.0050165243"><ele>2764.89</ele><time>2013-07-26T10:15:05Z</time></trkpt><trkpt lat="46.5296077263" lon="12.0050492976"><ele>2763.93</ele><time>2013-07-26T10:15:07Z</time></trkpt><trkpt lat="46.5295794792" lon="12.0051605254"><ele>2764.41</ele><time>2013-07-26T10:15:17Z</time></trkpt><trkpt lat="46.5295765456" lon="12.0052111521"><ele>2766.33</ele><time>2013-07-26T10:15:26Z</time></trkpt><trkpt lat="46.5295848437" lon="12.0052320231"><ele>2765.85</ele><time>2013-07-26T10:15:28Z</time></trkpt><trkpt lat="46.5295828320" lon="12.0053060353"><ele>2767.77</ele><time>2013-07-26T10:15:38Z</time></trkpt><trkpt lat="46.5295798983" lon="12.0053587575"><ele>2767.77</ele><time>2013-07-26T10:15:47Z</time></trkpt><trkpt lat="46.5296003502" lon="12.0054052770"><ele>2767.29</ele><time>2013-07-26T10:15:55Z</time></trkpt><trkpt lat="46.5296079777" lon="12.0054383017"><ele>2767.77</ele><time>2013-07-26T10:15:58Z</time></trkpt><trkpt lat="46.5296332911" lon="12.0055195224"><ele>2766.81</ele><time>2013-07-26T10:16:04Z</time></trkpt><trkpt lat="46.5296218917" lon="12.0056439936"><ele>2766.33</ele><time>2013-07-26T10:16:14Z</time></trkpt><trkpt lat="46.5296147671" lon="12.0056888368"><ele>2765.37</ele><time>2013-07-26T10:16:19Z</time></trkpt><trkpt lat="46.5295660682" lon="12.0057991426"><ele>2764.41</ele><time>2013-07-26T10:16:30Z</time></trkpt><trkpt lat="46.5295552555" lon="12.0058198459"><ele>2764.41</ele><time>2013-07-26T10:16:32Z</time></trkpt><trkpt lat="46.5295047127" lon="12.0059185848"><ele>2763.93</ele><time>2013-07-26T10:16:42Z</time></trkpt><trkpt lat="46.5294778906" lon="12.0059320796"><ele>2763.93</ele><time>2013-07-26T10:16:52Z</time></trkpt><trkpt lat="46.5293970890" lon="12.0059920102"><ele>2766.33</ele><time>2013-07-26T10:17:03Z</time></trkpt><trkpt lat="46.5293424390" lon="12.0060568862"><ele>2766.33</ele><time>2013-07-26T10:17:12Z</time></trkpt><trkpt lat="46.5293172933" lon="12.0061034057"><ele>2766.33</ele><time>2013-07-26T10:17:16Z</time></trkpt><trkpt lat="46.5292659961" lon="12.0062107779"><ele>2766.33</ele><time>2013-07-26T10:17:24Z</time></trkpt><trkpt lat="46.5291917324" lon="12.0063146297"><ele>2767.77</ele><time>2013-07-26T10:17:35Z</time></trkpt><trkpt lat="46.5291520860" lon="12.0064085908"><ele>2768.25</ele><time>2013-07-26T10:17:44Z</time></trkpt><trkpt lat="46.5291084163" lon="12.0064940024"><ele>2769.21</ele><time>2013-07-26T10:17:52Z</time></trkpt><trkpt lat="46.5290950052" lon="12.0065174717"><ele>2769.21</ele><time>2013-07-26T10:17:54Z</time></trkpt><trkpt lat="46.5290129464" lon="12.0066401828"><ele>2769.21</ele><time>2013-07-26T10:18:04Z</time></trkpt><trkpt lat="46.5289416164" lon="12.0067906380"><ele>2768.73</ele><time>2013-07-26T10:18:16Z</time></trkpt><trkpt lat="46.5289142914" lon="12.0068666618"><ele>2767.77</ele><time>2013-07-26T10:18:23Z</time></trkpt><trkpt lat="46.5289214998" lon="12.0069525763"><ele>2767.29</ele><time>2013-07-26T10:18:30Z</time></trkpt><trkpt lat="46.5289365035" lon="12.0069862716"><ele>2765.85</ele><time>2013-07-26T10:18:33Z</time></trkpt><trkpt lat="46.5289421193" lon="12.0070522372"><ele>2764.89</ele><time>2013-07-26T10:18:38Z</time></trkpt><trkpt lat="46.5288730524" lon="12.0071569271"><ele>2764.89</ele><time>2013-07-26T10:18:48Z</time></trkpt><trkpt lat="46.5287906583" lon="12.0072660595"><ele>2764.41</ele><time>2013-07-26T10:18:59Z</time></trkpt><trkpt lat="46.5287162270" lon="12.0073580928"><ele>2765.37</ele><time>2013-07-26T10:19:09Z</time></trkpt><trkpt lat="46.5286719706" lon="12.0074059535"><ele>2765.37</ele><time>2013-07-26T10:19:14Z</time></trkpt><trkpt lat="46.5286536980" lon="12.0074046124"><ele>2765.85</ele><time>2013-07-26T10:19:16Z</time></trkpt><trkpt lat="46.5285448171" lon="12.0074394811"><ele>2767.29</ele><time>2013-07-26T10:19:29Z</time></trkpt><trkpt lat="46.5285377763" lon="12.0074377209"><ele>2767.29</ele><time>2013-07-26T10:19:30Z</time></trkpt><trkpt lat="46.5284563042" lon="12.0074368827"><ele>2767.77</ele><time>2013-07-26T10:19:42Z</time></trkpt><trkpt lat="46.5284261294" lon="12.0074417442"><ele>2767.77</ele><time>2013-07-26T10:19:54Z</time></trkpt><trkpt lat="46.5283755865" lon="12.0074604359"><ele>2766.33</ele><time>2013-07-26T10:20:04Z</time></trkpt><trkpt lat="46.5283220261" lon="12.0074804686"><ele>2765.37</ele><time>2013-07-26T10:20:15Z</time></trkpt><trkpt lat="46.5282750037" lon="12.0075031836"><ele>2763.45</ele><time>2013-07-26T10:20:28Z</time></trkpt><trkpt lat="46.5282407217" lon="12.0074964780"><ele>2762.00</ele><time>2013-07-26T10:20:40Z</time></trkpt><trkpt lat="46.5282327589" lon="12.0075454284"><ele>2759.60</ele><time>2013-07-26T10:20:49Z</time></trkpt><trkpt lat="46.5282000694" lon="12.0075642038"><ele>2758.64</ele><time>2013-07-26T10:20:53Z</time></trkpt><trkpt lat="46.5281153284" lon="12.0076727495"><ele>2757.68</ele><time>2013-07-26T10:21:04Z</time></trkpt><trkpt lat="46.5281083714" lon="12.0076801255"><ele>2757.68</ele><time>2013-07-26T10:21:05Z</time></trkpt><trkpt lat="46.5280615166" lon="12.0077115577"><ele>2756.24</ele><time>2013-07-26T10:21:11Z</time></trkpt><trkpt lat="46.5280321799" lon="12.0077154133"><ele>2756.72</ele><time>2013-07-26T10:21:14Z</time></trkpt><trkpt lat="46.5279538929" lon="12.0077315904"><ele>2756.24</ele><time>2013-07-26T10:21:21Z</time></trkpt><trkpt lat="46.5277540684" lon="12.0086758118"><ele>2741.82</ele><time>2013-07-26T11:31:14Z</time></trkpt><trkpt lat="46.5277839918" lon="12.0086487383"><ele>2741.82</ele><time>2013-07-26T11:31:17Z</time></trkpt><trkpt lat="46.5278233029" lon="12.0086380094"><ele>2740.86</ele><time>2013-07-26T11:31:20Z</time></trkpt><trkpt lat="46.5278435871" lon="12.0086679328"><ele>2740.86</ele><time>2013-07-26T11:31:23Z</time></trkpt><trkpt lat="46.5278450958" lon="12.0087432023"><ele>2740.38</ele><time>2013-07-26T11:31:27Z</time></trkpt><trkpt lat="46.5277711675" lon="12.0089312922"><ele>2739.41</ele><time>2013-07-26T11:31:40Z</time></trkpt><trkpt lat="46.5277450997" lon="12.0090848487"><ele>2737.97</ele><time>2013-07-26T11:31:51Z</time></trkpt><trkpt lat="46.5277442615" lon="12.0091670752"><ele>2737.49</ele><time>2013-07-26T11:31:56Z</time></trkpt><trkpt lat="46.5277254861" lon="12.0093300194"><ele>2736.05</ele><time>2013-07-26T11:32:06Z</time></trkpt><trkpt lat="46.5277238935" lon="12.0093756169"><ele>2735.57</ele><time>2013-07-26T11:32:09Z</time></trkpt><trkpt lat="46.5277233068" lon="12.0094637945"><ele>2734.61</ele><time>2013-07-26T11:32:16Z</time></trkpt><trkpt lat="46.5277248155" lon="12.0094900299"><ele>2735.09</ele><time>2013-07-26T11:32:18Z</time></trkpt><trkpt lat="46.5277917031" lon="12.0097802114"><ele>2731.72</ele><time>2013-07-26T11:32:34Z</time></trkpt><trkpt lat="46.5278000012" lon="12.0099904295"><ele>2728.84</ele><time>2013-07-26T11:32:46Z</time></trkpt><trkpt lat="46.5277829859" lon="12.0101997256"><ele>2727.40</ele><time>2013-07-26T11:32:59Z</time></trkpt><trkpt lat="46.5277746040" lon="12.0102618355"><ele>2726.44</ele><time>2013-07-26T11:33:04Z</time></trkpt><trkpt lat="46.5277897753" lon="12.0103344228"><ele>2724.51</ele><time>2013-07-26T11:33:11Z</time></trkpt><trkpt lat="46.5277908649" lon="12.0104301441"><ele>2722.59</ele><time>2013-07-26T11:33:20Z</time></trkpt><trkpt lat="46.5277838241" lon="12.0105448924"><ele>2721.63</ele><time>2013-07-26T11:33:33Z</time></trkpt><trkpt lat="46.5277837403" lon="12.0105453115"><ele>2721.63</ele><time>2013-07-26T11:33:45Z</time></trkpt><trkpt lat="46.5277846623" lon="12.0105481613"><ele>2722.11</ele><time>2013-07-26T11:34:00Z</time></trkpt><trkpt lat="46.5277846623" lon="12.0105481613"><ele>2720.67</ele><time>2013-07-26T11:34:22Z</time></trkpt><trkpt lat="46.5277858358" lon="12.0105493348"><ele>2721.15</ele><time>2013-07-26T11:34:39Z</time></trkpt><trkpt lat="46.5277853329" lon="12.0105551183"><ele>2721.15</ele><time>2013-07-26T11:34:59Z</time></trkpt><trkpt lat="46.5277853329" lon="12.0105551183"><ele>2720.67</ele><time>2013-07-26T11:35:19Z</time></trkpt><trkpt lat="46.5277468599" lon="12.0106067508"><ele>2720.67</ele><time>2013-07-26T11:35:28Z</time></trkpt><trkpt lat="46.5278055333" lon="12.0105485804"><ele>2720.19</ele><time>2013-07-26T11:36:03Z</time></trkpt><trkpt lat="46.5278423298" lon="12.0104894042"><ele>2718.27</ele><time>2013-07-26T11:36:14Z</time></trkpt><trkpt lat="46.5278595127" lon="12.0104733109"><ele>2712.50</ele><time>2013-07-26T11:36:17Z</time></trkpt><trkpt lat="46.5278595965" lon="12.0104728080"><ele>2717.78</ele><time>2013-07-26T11:36:18Z</time></trkpt><trkpt lat="46.5278599318" lon="12.0104682818"><ele>2724.03</ele><time>2013-07-26T11:36:20Z</time></trkpt><trkpt lat="46.5278632008" lon="12.0104617439"><ele>2719.71</ele><time>2013-07-26T11:36:21Z</time></trkpt><trkpt lat="46.5278855804" lon="12.0104372688"><ele>2718.75</ele><time>2013-07-26T11:36:25Z</time></trkpt><trkpt lat="46.5279786196" lon="12.0103216823"><ele>2717.30</ele><time>2013-07-26T11:36:36Z</time></trkpt><trkpt lat="46.5280473512" lon="12.0102692116"><ele>2715.86</ele><time>2013-07-26T11:36:48Z</time></trkpt><trkpt lat="46.5280590858" lon="12.0103607420"><ele>2713.46</ele><time>2013-07-26T11:36:59Z</time></trkpt><trkpt lat="46.5280740056" lon="12.0104535297"><ele>2712.02</ele><time>2013-07-26T11:37:11Z</time></trkpt><trkpt lat="46.5280662104" lon="12.0104859676"><ele>2711.06</ele><time>2013-07-26T11:37:14Z</time></trkpt><trkpt lat="46.5280823875" lon="12.0105763245"><ele>2709.13</ele><time>2013-07-26T11:37:27Z</time></trkpt><trkpt lat="46.5280875005" lon="12.0105760731"><ele>2708.65</ele><time>2013-07-26T11:37:28Z</time></trkpt><trkpt lat="46.5281549748" lon="12.0105207525"><ele>2706.73</ele><time>2013-07-26T11:37:38Z</time></trkpt><trkpt lat="46.5281983931" lon="12.0104777534"><ele>2706.25</ele><time>2013-07-26T11:37:43Z</time></trkpt><trkpt lat="46.5282186773" lon="12.0104516856"><ele>2705.29</ele><time>2013-07-26T11:37:46Z</time></trkpt><trkpt lat="46.5282351896" lon="12.0105393603"><ele>2703.36</ele><time>2013-07-26T11:37:55Z</time></trkpt><trkpt lat="46.5282422304" lon="12.0106002130"><ele>2701.92</ele><time>2013-07-26T11:38:06Z</time></trkpt><trkpt lat="46.5282566473" lon="12.0106398594"><ele>2701.44</ele><time>2013-07-26T11:38:14Z</time></trkpt><trkpt lat="46.5282566473" lon="12.0106398594"><ele>2700.96</ele><time>2013-07-26T11:38:15Z</time></trkpt><trkpt lat="46.5283026639" lon="12.0106239337"><ele>2698.56</ele><time>2013-07-26T11:38:24Z</time></trkpt><trkpt lat="46.5283191763" lon="12.0106124505"><ele>2698.56</ele><time>2013-07-26T11:38:26Z</time></trkpt><trkpt lat="46.5283985529" lon="12.0105315652"><ele>2696.64</ele><time>2013-07-26T11:38:36Z</time></trkpt><trkpt lat="46.5284791030" lon="12.0104329940"><ele>2695.67</ele><time>2013-07-26T11:38:47Z</time></trkpt><trkpt lat="46.5285253711" lon="12.0104197506"><ele>2694.23</ele><time>2013-07-26T11:38:57Z</time></trkpt><trkpt lat="46.5285445657" lon="12.0105331577"><ele>2690.87</ele><time>2013-07-26T11:39:09Z</time></trkpt><trkpt lat="46.5285625868" lon="12.0106810145"><ele>2688.94</ele><time>2013-07-26T11:39:23Z</time></trkpt><trkpt lat="46.5285657719" lon="12.0107436273"><ele>2688.46</ele><time>2013-07-26T11:39:27Z</time></trkpt><trkpt lat="46.5286096092" lon="12.0107934158"><ele>2686.54</ele><time>2013-07-26T11:39:38Z</time></trkpt><trkpt lat="46.5286437236" lon="12.0107631572"><ele>2684.62</ele><time>2013-07-26T11:39:44Z</time></trkpt><trkpt lat="46.5286747366" lon="12.0108045638"><ele>2683.66</ele><time>2013-07-26T11:39:53Z</time></trkpt><trkpt lat="46.5286982059" lon="12.0108493231"><ele>2682.70</ele><time>2013-07-26T11:40:01Z</time></trkpt><trkpt lat="46.5287023131" lon="12.0108296257"><ele>2681.73</ele><time>2013-07-26T11:40:03Z</time></trkpt><trkpt lat="46.5287492517" lon="12.0108611416"><ele>2679.81</ele><time>2013-07-26T11:40:11Z</time></trkpt><trkpt lat="46.5288008843" lon="12.0109167974"><ele>2678.37</ele><time>2013-07-26T11:40:21Z</time></trkpt><trkpt lat="46.5288038179" lon="12.0109883789"><ele>2676.93</ele><time>2013-07-26T11:40:33Z</time></trkpt><trkpt lat="46.5288014710" lon="12.0110953320"><ele>2676.45</ele><time>2013-07-26T11:40:42Z</time></trkpt><trkpt lat="46.5287959389" lon="12.0111965854"><ele>2675.49</ele><time>2013-07-26T11:40:51Z</time></trkpt><trkpt lat="46.5287935082" lon="12.0112871937"><ele>2673.56</ele><time>2013-07-26T11:41:00Z</time></trkpt><trkpt lat="46.5287719667" lon="12.0113768801"><ele>2673.08</ele><time>2013-07-26T11:41:10Z</time></trkpt><trkpt lat="46.5287760738" lon="12.0113795623"><ele>2673.08</ele><time>2013-07-26T11:41:17Z</time></trkpt><trkpt lat="46.5288059134" lon="12.0114851743"><ele>2671.64</ele><time>2013-07-26T11:41:27Z</time></trkpt><trkpt lat="46.5288492478" lon="12.0114365593"><ele>2669.72</ele><time>2013-07-26T11:41:36Z</time></trkpt><trkpt lat="46.5288689453" lon="12.0114197955"><ele>2668.28</ele><time>2013-07-26T11:41:39Z</time></trkpt><trkpt lat="46.5289062448" lon="12.0113256667"><ele>2666.35</ele><time>2013-07-26T11:41:49Z</time></trkpt><trkpt lat="46.5289189015" lon="12.0113007724"><ele>2664.91</ele><time>2013-07-26T11:41:52Z</time></trkpt><trkpt lat="46.5289808437" lon="12.0113058854"><ele>2663.95</ele><time>2013-07-26T11:42:01Z</time></trkpt><trkpt lat="46.5289988648" lon="12.0113772154"><ele>2663.47</ele><time>2013-07-26T11:42:07Z</time></trkpt><trkpt lat="46.5290167183" lon="12.0115161035"><ele>2661.07</ele><time>2013-07-26T11:42:18Z</time></trkpt><trkpt lat="46.5290402714" lon="12.0116072986"><ele>2659.14</ele><time>2013-07-26T11:42:28Z</time></trkpt><trkpt lat="46.5290433727" lon="12.0115984976"><ele>2657.22</ele><time>2013-07-26T11:42:36Z</time></trkpt><trkpt lat="46.5290862042" lon="12.0115394052"><ele>2655.78</ele><time>2013-07-26T11:42:45Z</time></trkpt><trkpt lat="46.5291123558" lon="12.0114960708"><ele>2655.30</ele><time>2013-07-26T11:42:50Z</time></trkpt><trkpt lat="46.5291609708" lon="12.0114280935"><ele>2652.42</ele><time>2013-07-26T11:43:01Z</time></trkpt><trkpt lat="46.5292019583" lon="12.0113576017"><ele>2650.97</ele><time>2013-07-26T11:43:11Z</time></trkpt><trkpt lat="46.5292301215" lon="12.0113969967"><ele>2649.53</ele><time>2013-07-26T11:43:19Z</time></trkpt><trkpt lat="46.5292242542" lon="12.0115051232"><ele>2649.05</ele><time>2013-07-26T11:43:28Z</time></trkpt><trkpt lat="46.5292343125" lon="12.0115792193"><ele>2648.09</ele><time>2013-07-26T11:43:35Z</time></trkpt><trkpt lat="46.5292821731" lon="12.0114992559"><ele>2645.69</ele><time>2013-07-26T11:43:45Z</time></trkpt><trkpt lat="46.5293244179" lon="12.0114716794"><ele>2643.76</ele><time>2013-07-26T11:43:55Z</time></trkpt><trkpt lat="46.5293372422" lon="12.0115618687"><ele>2641.84</ele><time>2013-07-26T11:44:06Z</time></trkpt><trkpt lat="46.5293349791" lon="12.0116401557"><ele>2640.88</ele><time>2013-07-26T11:44:17Z</time></trkpt><trkpt lat="46.5293191373" lon="12.0116781257"><ele>2639.44</ele><time>2013-07-26T11:44:26Z</time></trkpt><trkpt lat="46.5293219034" lon="12.0117396489"><ele>2637.51</ele><time>2013-07-26T11:44:34Z</time></trkpt><trkpt lat="46.5293623041" lon="12.0117140841"><ele>2636.55</ele><time>2013-07-26T11:44:42Z</time></trkpt><trkpt lat="46.5293696802" lon="12.0116974879"><ele>2635.59</ele><time>2013-07-26T11:44:45Z</time></trkpt><trkpt lat="46.5293961670" lon="12.0116407424"><ele>2634.15</ele><time>2013-07-26T11:44:50Z</time></trkpt><trkpt lat="46.5294048004" lon="12.0116136689"><ele>2634.15</ele><time>2013-07-26T11:44:52Z</time></trkpt><trkpt lat="46.5294400882" lon="12.0115617849"><ele>2633.19</ele><time>2013-07-26T11:44:57Z</time></trkpt><trkpt lat="46.5294763818" lon="12.0116171055"><ele>2631.75</ele><time>2013-07-26T11:45:06Z</time></trkpt><trkpt lat="46.5294804890" lon="12.0116661396"><ele>2631.27</ele><time>2013-07-26T11:45:15Z</time></trkpt><trkpt lat="46.5294773877" lon="12.0116780419"><ele>2631.27</ele><time>2013-07-26T11:45:19Z</time></trkpt><trkpt lat="46.5294830874" lon="12.0117725059"><ele>2629.82</ele><time>2013-07-26T11:45:28Z</time></trkpt><trkpt lat="46.5294953249" lon="12.0117897727"><ele>2629.34</ele><time>2013-07-26T11:45:30Z</time></trkpt><trkpt lat="46.5295396652" lon="12.0119110588"><ele>2625.98</ele><time>2013-07-26T11:45:39Z</time></trkpt><trkpt lat="46.5295656491" lon="12.0119312592"><ele>2625.98</ele><time>2013-07-26T11:45:49Z</time></trkpt><trkpt lat="46.5295688342" lon="12.0119801257"><ele>2625.98</ele><time>2013-07-26T11:45:58Z</time></trkpt><trkpt lat="46.5295688342" lon="12.0119801257"><ele>2625.98</ele><time>2013-07-26T11:46:05Z</time></trkpt><trkpt lat="46.5296085645" lon="12.0119732525"><ele>2624.54</ele><time>2013-07-26T11:46:13Z</time></trkpt><trkpt lat="46.5296388231" lon="12.0119951293"><ele>2623.58</ele><time>2013-07-26T11:46:21Z</time></trkpt><trkpt lat="46.5296518989" lon="12.0120030083"><ele>2622.61</ele><time>2013-07-26T11:46:31Z</time></trkpt><trkpt lat="46.5296894498" lon="12.0120786130"><ele>2620.69</ele><time>2013-07-26T11:46:41Z</time></trkpt><trkpt lat="46.5297170263" lon="12.0121292397"><ele>2619.73</ele><time>2013-07-26T11:46:51Z</time></trkpt><trkpt lat="46.5297481231" lon="12.0121842250"><ele>2617.81</ele><time>2013-07-26T11:47:00Z</time></trkpt><trkpt lat="46.5297953971" lon="12.0121544693"><ele>2616.37</ele><time>2013-07-26T11:47:09Z</time></trkpt><trkpt lat="46.5298263263" lon="12.0121852309"><ele>2614.92</ele><time>2013-07-26T11:47:17Z</time></trkpt><trkpt lat="46.5298218001" lon="12.0121951215"><ele>2614.44</ele><time>2013-07-26T11:47:38Z</time></trkpt><trkpt lat="46.5298242308" lon="12.0121946186"><ele>2613.96</ele><time>2013-07-26T11:47:44Z</time></trkpt><trkpt lat="46.5298533998" lon="12.0122006536"><ele>2612.04</ele><time>2013-07-26T11:47:52Z</time></trkpt><trkpt lat="46.5298148431" lon="12.0120836422"><ele>2610.12</ele><time>2013-07-26T11:48:03Z</time></trkpt><trkpt lat="46.5298211295" lon="12.0120369550"><ele>2609.16</ele><time>2013-07-26T11:48:07Z</time></trkpt><trkpt lat="46.5299134981" lon="12.0118988212"><ele>2607.71</ele><time>2013-07-26T11:48:20Z</time></trkpt><trkpt lat="46.5299164318" lon="12.0118948817"><ele>2608.19</ele><time>2013-07-26T11:48:21Z</time></trkpt><trkpt lat="46.5299533121" lon="12.0118386392"><ele>2607.23</ele><time>2013-07-26T11:48:26Z</time></trkpt><trkpt lat="46.5300016757" lon="12.0118155051"><ele>2605.79</ele><time>2013-07-26T11:48:31Z</time></trkpt><trkpt lat="46.5300402325" lon="12.0118648745"><ele>2603.39</ele><time>2013-07-26T11:48:40Z</time></trkpt><trkpt lat="46.5300625283" lon="12.0119227935"><ele>2600.98</ele><time>2013-07-26T11:48:49Z</time></trkpt><trkpt lat="46.5300740954" lon="12.0119626075"><ele>2599.54</ele><time>2013-07-26T11:48:53Z</time></trkpt><trkpt lat="46.5301103890" lon="12.0120202750"><ele>2597.62</ele><time>2013-07-26T11:49:04Z</time></trkpt><trkpt lat="46.5301312599" lon="12.0121013280"><ele>2595.70</ele><time>2013-07-26T11:49:13Z</time></trkpt><trkpt lat="46.5301591717" lon="12.0121894218"><ele>2592.81</ele><time>2013-07-26T11:49:21Z</time></trkpt><trkpt lat="46.5301766898" lon="12.0123233646"><ele>2591.85</ele><time>2013-07-26T11:49:30Z</time></trkpt><trkpt lat="46.5301772766" lon="12.0123669505"><ele>2591.85</ele><time>2013-07-26T11:49:32Z</time></trkpt><trkpt lat="46.5301820543" lon="12.0124235284"><ele>2590.41</ele><time>2013-07-26T11:49:35Z</time></trkpt><trkpt lat="46.5302307531" lon="12.0125470776"><ele>2588.49</ele><time>2013-07-26T11:49:45Z</time></trkpt><trkpt lat="46.5302569885" lon="12.0125930943"><ele>2587.53</ele><time>2013-07-26T11:49:49Z</time></trkpt><trkpt lat="46.5302724112" lon="12.0126391109"><ele>2586.08</ele><time>2013-07-26T11:49:53Z</time></trkpt><trkpt lat="46.5303564817" lon="12.0127515960"><ele>2584.16</ele><time>2013-07-26T11:50:04Z</time></trkpt><trkpt lat="46.5303724911" lon="12.0127859619"><ele>2583.20</ele><time>2013-07-26T11:50:07Z</time></trkpt><trkpt lat="46.5304320026" lon="12.0129280351"><ele>2582.24</ele><time>2013-07-26T11:50:16Z</time></trkpt><trkpt lat="46.5304691344" lon="12.0130866207"><ele>2583.68</ele><time>2013-07-26T11:50:26Z</time></trkpt><trkpt lat="46.5304709785" lon="12.0131615549"><ele>2584.16</ele><time>2013-07-26T11:50:31Z</time></trkpt><trkpt lat="46.5304309968" lon="12.0132788178"><ele>2586.08</ele><time>2013-07-26T11:50:43Z</time></trkpt><trkpt lat="46.5304198489" lon="12.0133627206"><ele>2587.04</ele><time>2013-07-26T11:50:53Z</time></trkpt><trkpt lat="46.5304235369" lon="12.0134279318"><ele>2588.01</ele><time>2013-07-26T11:51:03Z</time></trkpt><trkpt lat="46.5304235369" lon="12.0134279318"><ele>2588.01</ele><time>2013-07-26T11:51:23Z</time></trkpt><trkpt lat="46.5304235369" lon="12.0134279318"><ele>2587.53</ele><time>2013-07-26T11:51:36Z</time></trkpt><trkpt lat="46.5304226987" lon="12.0134260878"><ele>2587.53</ele><time>2013-07-26T11:51:55Z</time></trkpt><trkpt lat="46.5304226987" lon="12.0134260878"><ele>2587.53</ele><time>2013-07-26T11:52:18Z</time></trkpt><trkpt lat="46.5304407198" lon="12.0134912990"><ele>2587.04</ele><time>2013-07-26T11:52:29Z</time></trkpt><trkpt lat="46.5304508619" lon="12.0135101583"><ele>2587.53</ele><time>2013-07-26T11:52:43Z</time></trkpt><trkpt lat="46.5304419771" lon="12.0135529060"><ele>2587.53</ele><time>2013-07-26T11:52:53Z</time></trkpt><trkpt lat="46.5304490179" lon="12.0135837514"><ele>2587.53</ele><time>2013-07-26T11:52:56Z</time></trkpt><trkpt lat="46.5305270534" lon="12.0136992540"><ele>2586.56</ele><time>2013-07-26T11:53:07Z</time></trkpt><trkpt lat="46.5305378661" lon="12.0137565024"><ele>2587.53</ele><time>2013-07-26T11:53:12Z</time></trkpt><trkpt lat="46.5305693820" lon="12.0139233861"><ele>2586.08</ele><time>2013-07-26T11:53:24Z</time></trkpt><trkpt lat="46.5305786021" lon="12.0139729232"><ele>2586.08</ele><time>2013-07-26T11:53:28Z</time></trkpt><trkpt lat="46.5305891633" lon="12.0141053572"><ele>2584.64</ele><time>2013-07-26T11:53:38Z</time></trkpt><trkpt lat="46.5305956174" lon="12.0142416470"><ele>2582.24</ele><time>2013-07-26T11:53:48Z</time></trkpt><trkpt lat="46.5305784345" lon="12.0143079478"><ele>2582.24</ele><time>2013-07-26T11:53:53Z</time></trkpt><trkpt lat="46.5305852238" lon="12.0144475065"><ele>2580.80</ele><time>2013-07-26T11:54:03Z</time></trkpt><trkpt lat="46.5305845533" lon="12.0144647732"><ele>2580.32</ele><time>2013-07-26T11:54:04Z</time></trkpt><trkpt lat="46.5305993892" lon="12.0145221893"><ele>2579.35</ele><time>2013-07-26T11:54:08Z</time></trkpt><trkpt lat="46.5306272171" lon="12.0147006400"><ele>2579.35</ele><time>2013-07-26T11:54:20Z</time></trkpt><trkpt lat="46.5306612477" lon="12.0147599839"><ele>2579.35</ele><time>2013-07-26T11:54:29Z</time></trkpt><trkpt lat="46.5306791849" lon="12.0147823635"><ele>2579.84</ele><time>2013-07-26T11:54:34Z</time></trkpt><trkpt lat="46.5306970384" lon="12.0148219261"><ele>2579.35</ele><time>2013-07-26T11:54:36Z</time></trkpt><trkpt lat="46.5307078511" lon="12.0149033982"><ele>2579.84</ele><time>2013-07-26T11:54:40Z</time></trkpt><trkpt lat="46.5307391994" lon="12.0150285400"><ele>2579.35</ele><time>2013-07-26T11:54:47Z</time></trkpt><trkpt lat="46.5307441447" lon="12.0150935836"><ele>2579.84</ele><time>2013-07-26T11:54:51Z</time></trkpt><trkpt lat="46.5307484195" lon="12.0152044762"><ele>2579.35</ele><time>2013-07-26T11:54:57Z</time></trkpt><trkpt lat="46.5307593159" lon="12.0152467210"><ele>2579.35</ele><time>2013-07-26T11:55:00Z</time></trkpt><trkpt lat="46.5307272132" lon="12.0154275186"><ele>2578.87</ele><time>2013-07-26T11:55:12Z</time></trkpt><trkpt lat="46.5307398699" lon="12.0156257506"><ele>2576.95</ele><time>2013-07-26T11:55:25Z</time></trkpt><trkpt lat="46.5307800192" lon="12.0157550834"><ele>2574.55</ele><time>2013-07-26T11:55:36Z</time></trkpt><trkpt lat="46.5307942685" lon="12.0158311911"><ele>2573.59</ele><time>2013-07-26T11:55:41Z</time></trkpt><trkpt lat="46.5308724716" lon="12.0159536507"><ele>2572.14</ele><time>2013-07-26T11:55:52Z</time></trkpt><trkpt lat="46.5308867209" lon="12.0159900282"><ele>2572.14</ele><time>2013-07-26T11:55:55Z</time></trkpt><trkpt lat="46.5309075918" lon="12.0160859171"><ele>2571.18</ele><time>2013-07-26T11:56:01Z</time></trkpt><trkpt lat="46.5309537761" lon="12.0162192732"><ele>2569.26</ele><time>2013-07-26T11:56:12Z</time></trkpt><trkpt lat="46.5309850406" lon="12.0163249690"><ele>2566.86</ele><time>2013-07-26T11:56:21Z</time></trkpt><trkpt lat="46.5310104378" lon="12.0164809562"><ele>2564.93</ele><time>2013-07-26T11:56:31Z</time></trkpt><trkpt lat="46.5310225915" lon="12.0165453292"><ele>2563.97</ele><time>2013-07-26T11:56:37Z</time></trkpt><trkpt lat="46.5310468152" lon="12.0166775957"><ele>2561.57</ele><time>2013-07-26T11:56:47Z</time></trkpt><trkpt lat="46.5310471505" lon="12.0167008974"><ele>2561.57</ele><time>2013-07-26T11:57:01Z</time></trkpt><trkpt lat="46.5310847852" lon="12.0168280508"><ele>2560.13</ele><time>2013-07-26T11:57:11Z</time></trkpt><trkpt lat="46.5311068296" lon="12.0170054119"><ele>2559.17</ele><time>2013-07-26T11:57:24Z</time></trkpt><trkpt lat="46.5311356634" lon="12.0171734691"><ele>2556.76</ele><time>2013-07-26T11:57:36Z</time></trkpt><trkpt lat="46.5311768185" lon="12.0173399337"><ele>2555.32</ele><time>2013-07-26T11:57:47Z</time></trkpt><trkpt lat="46.5311989468" lon="12.0174753014"><ele>2553.88</ele><time>2013-07-26T11:57:56Z</time></trkpt><trkpt lat="46.5312135313" lon="12.0175395068"><ele>2552.92</ele><time>2013-07-26T11:58:01Z</time></trkpt><trkpt lat="46.5312307142" lon="12.0177032053"><ele>2551.48</ele><time>2013-07-26T11:58:12Z</time></trkpt><trkpt lat="46.5312641580" lon="12.0177581068"><ele>2550.51</ele><time>2013-07-26T11:58:17Z</time></trkpt><trkpt lat="46.5312814247" lon="12.0178595278"><ele>2549.55</ele><time>2013-07-26T11:58:23Z</time></trkpt><trkpt lat="46.5313089173" lon="12.0180206280"><ele>2547.63</ele><time>2013-07-26T11:58:35Z</time></trkpt><trkpt lat="46.5313626453" lon="12.0181288384"><ele>2546.67</ele><time>2013-07-26T11:58:44Z</time></trkpt><trkpt lat="46.5313836001" lon="12.0183230471"><ele>2544.27</ele><time>2013-07-26T11:58:56Z</time></trkpt><trkpt lat="46.5313939936" lon="12.0184314251"><ele>2541.86</ele><time>2013-07-26T11:59:08Z</time></trkpt><trkpt lat="46.5313928202" lon="12.0184387174"><ele>2541.86</ele><time>2013-07-26T11:59:21Z</time></trkpt><trkpt lat="46.5313624777" lon="12.0185065269"><ele>2539.94</ele><time>2013-07-26T11:59:32Z</time></trkpt><trkpt lat="46.5313482285" lon="12.0185872447"><ele>2538.02</ele><time>2013-07-26T11:59:42Z</time></trkpt><trkpt lat="46.5313255973" lon="12.0186610054"><ele>2536.10</ele><time>2013-07-26T11:59:48Z</time></trkpt><trkpt lat="46.5312912315" lon="12.0188260451"><ele>2534.65</ele><time>2013-07-26T11:59:59Z</time></trkpt><trkpt lat="46.5313721169" lon="12.0189038292"><ele>2531.77</ele><time>2013-07-26T12:01:33Z</time></trkpt><trkpt lat="46.5314258449" lon="12.0189155638"><ele>2531.77</ele><time>2013-07-26T12:01:44Z</time></trkpt><trkpt lat="46.5314355679" lon="12.0189162344"><ele>2531.77</ele><time>2013-07-26T12:01:51Z</time></trkpt><trkpt lat="46.5314773936" lon="12.0189112052"><ele>2530.81</ele><time>2013-07-26T12:02:02Z</time></trkpt><trkpt lat="46.5315034613" lon="12.0189470798"><ele>2529.85</ele><time>2013-07-26T12:02:06Z</time></trkpt><trkpt lat="46.5315288585" lon="12.0190537814"><ele>2527.92</ele><time>2013-07-26T12:02:17Z</time></trkpt><trkpt lat="46.5315322112" lon="12.0190630853"><ele>2527.92</ele><time>2013-07-26T12:02:18Z</time></trkpt><trkpt lat="46.5315387491" lon="12.0191138797"><ele>2526.48</ele><time>2013-07-26T12:02:23Z</time></trkpt><trkpt lat="46.5315400064" lon="12.0191425458"><ele>2526.48</ele><time>2013-07-26T12:02:25Z</time></trkpt><trkpt lat="46.5315486398" lon="12.0192024764"><ele>2524.56</ele><time>2013-07-26T12:02:32Z</time></trkpt><trkpt lat="46.5315688401" lon="12.0192193240"><ele>2523.60</ele><time>2013-07-26T12:02:37Z</time></trkpt><trkpt lat="46.5315809939" lon="12.0193014666"><ele>2521.68</ele><time>2013-07-26T12:02:46Z</time></trkpt><trkpt lat="46.5315804072" lon="12.0193116926"><ele>2521.68</ele><time>2013-07-26T12:02:47Z</time></trkpt><trkpt lat="46.5315557644" lon="12.0193824358"><ele>2521.68</ele><time>2013-07-26T12:02:53Z</time></trkpt><trkpt lat="46.5315103345" lon="12.0194278657"><ele>2520.23</ele><time>2013-07-26T12:02:59Z</time></trkpt><trkpt lat="46.5314043872" lon="12.0195343997"><ele>2518.31</ele><time>2013-07-26T12:03:09Z</time></trkpt><trkpt lat="46.5313174669" lon="12.0195952523"><ele>2518.31</ele><time>2013-07-26T12:03:15Z</time></trkpt><trkpt lat="46.5311740525" lon="12.0196530037"><ele>2518.31</ele><time>2013-07-26T12:03:26Z</time></trkpt><trkpt lat="46.5310893953" lon="12.0197164547"><ele>2517.83</ele><time>2013-07-26T12:03:33Z</time></trkpt><trkpt lat="46.5310893953" lon="12.0197164547"><ele>2517.83</ele><time>2013-07-26T12:03:34Z</time></trkpt><trkpt lat="46.5310634952" lon="12.0197564363"><ele>2517.35</ele><time>2013-07-26T12:03:37Z</time></trkpt><trkpt lat="46.5309418738" lon="12.0198816620"><ele>2517.35</ele><time>2013-07-26T12:03:49Z</time></trkpt><trkpt lat="46.5309008025" lon="12.0199021976"><ele>2516.87</ele><time>2013-07-26T12:03:58Z</time></trkpt><trkpt lat="46.5308903251" lon="12.0199404191"><ele>2516.39</ele><time>2013-07-26T12:04:08Z</time></trkpt><trkpt lat="46.5308574680" lon="12.0199306123"><ele>2517.35</ele><time>2013-07-26T12:04:15Z</time></trkpt><trkpt lat="46.5308404528" lon="12.0199160278"><ele>2517.83</ele><time>2013-07-26T12:04:17Z</time></trkpt><trkpt lat="46.5308284666" lon="12.0198941510"><ele>2516.87</ele><time>2013-07-26T12:04:19Z</time></trkpt><trkpt lat="46.5307917539" lon="12.0199369825"><ele>2514.47</ele><time>2013-07-26T12:04:27Z</time></trkpt><trkpt lat="46.5307542030" lon="12.0199259184"><ele>2512.54</ele><time>2013-07-26T12:04:32Z</time></trkpt><trkpt lat="46.5307233576" lon="12.0199047122"><ele>2511.10</ele><time>2013-07-26T12:04:35Z</time></trkpt><trkpt lat="46.5306822862" lon="12.0197315421"><ele>2509.66</ele><time>2013-07-26T12:04:47Z</time></trkpt><trkpt lat="46.5306765866" lon="12.0196418557"><ele>2507.26</ele><time>2013-07-26T12:04:58Z</time></trkpt><trkpt lat="46.5306387842" lon="12.0196084958"><ele>2506.29</ele><time>2013-07-26T12:05:05Z</time></trkpt><trkpt lat="46.5306003112" lon="12.0195712801"><ele>2503.89</ele><time>2013-07-26T12:05:12Z</time></trkpt><trkpt lat="46.5305644367" lon="12.0195716154"><ele>2503.89</ele><time>2013-07-26T12:05:15Z</time></trkpt><trkpt lat="46.5305480082" lon="12.0195687655"><ele>2502.93</ele><time>2013-07-26T12:05:17Z</time></trkpt><trkpt lat="46.5305180848" lon="12.0195328910"><ele>2502.45</ele><time>2013-07-26T12:05:28Z</time></trkpt><trkpt lat="46.5304732416" lon="12.0195007045"><ele>2501.97</ele><time>2013-07-26T12:05:32Z</time></trkpt><trkpt lat="46.5304367803" lon="12.0194717031"><ele>2500.53</ele><time>2013-07-26T12:05:36Z</time></trkpt><trkpt lat="46.5303994808" lon="12.0193292946"><ele>2498.60</ele><time>2013-07-26T12:05:46Z</time></trkpt><trkpt lat="46.5303837229" lon="12.0192278735"><ele>2495.24</ele><time>2013-07-26T12:05:55Z</time></trkpt><trkpt lat="46.5303734131" lon="12.0192044880"><ele>2494.76</ele><time>2013-07-26T12:05:57Z</time></trkpt><trkpt lat="46.5303658694" lon="12.0191903226"><ele>2493.80</ele><time>2013-07-26T12:05:58Z</time></trkpt><trkpt lat="46.5303227026" lon="12.0190418791"><ele>2491.39</ele><time>2013-07-26T12:06:09Z</time></trkpt><trkpt lat="46.5303107165" lon="12.0190017298"><ele>2488.99</ele><time>2013-07-26T12:06:15Z</time></trkpt><trkpt lat="46.5303023346" lon="12.0190009754"><ele>2488.51</ele><time>2013-07-26T12:06:16Z</time></trkpt><trkpt lat="46.5302369557" lon="12.0189979579"><ele>2486.59</ele><time>2013-07-26T12:06:23Z</time></trkpt><trkpt lat="46.5301941242" lon="12.0190976188"><ele>2484.66</ele><time>2013-07-26T12:06:30Z</time></trkpt><trkpt lat="46.5301949624" lon="12.0191290509"><ele>2484.66</ele><time>2013-07-26T12:06:32Z</time></trkpt><trkpt lat="46.5301473532" lon="12.0190667734"><ele>2481.78</ele><time>2013-07-26T12:06:41Z</time></trkpt><trkpt lat="46.5301237162" lon="12.0190573856"><ele>2480.34</ele><time>2013-07-26T12:06:47Z</time></trkpt><trkpt lat="46.5300988220" lon="12.0191008877"><ele>2478.90</ele><time>2013-07-26T12:06:51Z</time></trkpt><trkpt lat="46.5300704911" lon="12.0191383548"><ele>2477.94</ele><time>2013-07-26T12:06:55Z</time></trkpt><trkpt lat="46.5300366282" lon="12.0192082599"><ele>2476.49</ele><time>2013-07-26T12:07:02Z</time></trkpt><trkpt lat="46.5299647115" lon="12.0192829426"><ele>2473.61</ele><time>2013-07-26T12:07:13Z</time></trkpt><trkpt lat="46.5299365483" lon="12.0192505885"><ele>2472.17</ele><time>2013-07-26T12:07:18Z</time></trkpt><trkpt lat="46.5299217962" lon="12.0191227645"><ele>2469.28</ele><time>2013-07-26T12:07:29Z</time></trkpt><trkpt lat="46.5299124084" lon="12.0191016421"><ele>2469.28</ele><time>2013-07-26T12:07:31Z</time></trkpt><trkpt lat="46.5298933815" lon="12.0190953556"><ele>2468.32</ele><time>2013-07-26T12:07:33Z</time></trkpt><trkpt lat="46.5298515558" lon="12.0190291386"><ele>2465.92</ele><time>2013-07-26T12:07:41Z</time></trkpt><trkpt lat="46.5298097301" lon="12.0190961100"><ele>2463.04</ele><time>2013-07-26T12:07:52Z</time></trkpt><trkpt lat="46.5297992527" lon="12.0191016421"><ele>2463.04</ele><time>2013-07-26T12:07:54Z</time></trkpt><trkpt lat="46.5297559183" lon="12.0190858841"><ele>2462.55</ele><time>2013-07-26T12:07:57Z</time></trkpt><trkpt lat="46.5297001787" lon="12.0191011392"><ele>2460.63</ele><time>2013-07-26T12:08:06Z</time></trkpt><trkpt lat="46.5296415053" lon="12.0190413762"><ele>2458.71</ele><time>2013-07-26T12:08:15Z</time></trkpt><trkpt lat="46.5295859333" lon="12.0189270470"><ele>2456.31</ele><time>2013-07-26T12:08:25Z</time></trkpt><trkpt lat="46.5295907948" lon="12.0188920107"><ele>2455.82</ele><time>2013-07-26T12:08:27Z</time></trkpt><trkpt lat="46.5295947343" lon="12.0188118797"><ele>2453.90</ele><time>2013-07-26T12:08:37Z</time></trkpt><trkpt lat="46.5295969974" lon="12.0188276377"><ele>2453.42</ele><time>2013-07-26T12:08:39Z</time></trkpt><trkpt lat="46.5295685828" lon="12.0188636798"><ele>2452.46</ele><time>2013-07-26T12:08:44Z</time></trkpt><trkpt lat="46.5295473766" lon="12.0188231952"><ele>2451.50</ele><time>2013-07-26T12:08:49Z</time></trkpt><trkpt lat="46.5295601171" lon="12.0187506080"><ele>2449.58</ele><time>2013-07-26T12:08:59Z</time></trkpt><trkpt lat="46.5295578539" lon="12.0187417232"><ele>2449.58</ele><time>2013-07-26T12:09:00Z</time></trkpt><trkpt lat="46.5295322891" lon="12.0187438186"><ele>2448.13</ele><time>2013-07-26T12:09:04Z</time></trkpt><trkpt lat="46.5294658206" lon="12.0187410526"><ele>2445.73</ele><time>2013-07-26T12:09:14Z</time></trkpt><trkpt lat="46.5293985140" lon="12.0187518653"><ele>2443.81</ele><time>2013-07-26T12:09:20Z</time></trkpt><trkpt lat="46.5293332189" lon="12.0187423937"><ele>2441.41</ele><time>2013-07-26T12:09:29Z</time></trkpt><trkpt lat="46.5292888787" lon="12.0187718142"><ele>2439.48</ele><time>2013-07-26T12:09:35Z</time></trkpt><trkpt lat="46.5292618889" lon="12.0187840518"><ele>2438.52</ele><time>2013-07-26T12:09:40Z</time></trkpt><trkpt lat="46.5292144474" lon="12.0187775139"><ele>2436.60</ele><time>2013-07-26T12:09:48Z</time></trkpt><trkpt lat="46.5291684307" lon="12.0187045913"><ele>2436.12</ele><time>2013-07-26T12:09:57Z</time></trkpt><trkpt lat="46.5290950891" lon="12.0185564831"><ele>2434.20</ele><time>2013-07-26T12:10:10Z</time></trkpt><trkpt lat="46.5290090907" lon="12.0183917787"><ele>2433.23</ele><time>2013-07-26T12:10:20Z</time></trkpt><trkpt lat="46.5289414488" lon="12.0182279963"><ele>2431.31</ele><time>2013-07-26T12:10:31Z</time></trkpt><trkpt lat="46.5289091785" lon="12.0181536488"><ele>2429.87</ele><time>2013-07-26T12:10:36Z</time></trkpt><trkpt lat="46.5288567916" lon="12.0180010144"><ele>2427.95</ele><time>2013-07-26T12:10:46Z</time></trkpt><trkpt lat="46.5288324840" lon="12.0177964959"><ele>2426.02</ele><time>2013-07-26T12:10:57Z</time></trkpt><trkpt lat="46.5288065840" lon="12.0176619664"><ele>2424.10</ele><time>2013-07-26T12:11:07Z</time></trkpt><trkpt lat="46.5287613217" lon="12.0174867008"><ele>2422.18</ele><time>2013-07-26T12:11:17Z</time></trkpt><trkpt lat="46.5287466533" lon="12.0174352359"><ele>2421.22</ele><time>2013-07-26T12:11:21Z</time></trkpt><trkpt lat="46.5286769159" lon="12.0172689389"><ele>2418.33</ele><time>2013-07-26T12:11:32Z</time></trkpt><trkpt lat="46.5286498424" lon="12.0172183122"><ele>2417.37</ele><time>2013-07-26T12:11:38Z</time></trkpt><trkpt lat="46.5286274627" lon="12.0171865448"><ele>2416.41</ele><time>2013-07-26T12:11:42Z</time></trkpt><trkpt lat="46.5285510197" lon="12.0170691982"><ele>2416.89</ele><time>2013-07-26T12:11:51Z</time></trkpt><trkpt lat="46.5284609143" lon="12.0169785060"><ele>2414.49</ele><time>2013-07-26T12:12:00Z</time></trkpt><trkpt lat="46.5284336731" lon="12.0169735607"><ele>2413.53</ele><time>2013-07-26T12:12:02Z</time></trkpt><trkpt lat="46.5283926018" lon="12.0169395301"><ele>2411.60</ele><time>2013-07-26T12:12:11Z</time></trkpt><trkpt lat="46.5283581521" lon="12.0169184916"><ele>2412.09</ele><time>2013-07-26T12:12:25Z</time></trkpt><trkpt lat="46.5283298213" lon="12.0168786775"><ele>2411.12</ele><time>2013-07-26T12:12:34Z</time></trkpt><trkpt lat="46.5282833856" lon="12.0168292243"><ele>2410.16</ele><time>2013-07-26T12:12:45Z</time></trkpt><trkpt lat="46.5282803681" lon="12.0167987142"><ele>2410.16</ele><time>2013-07-26T12:12:49Z</time></trkpt><trkpt lat="46.5282122232" lon="12.0168089401"><ele>2409.68</ele><time>2013-07-26T12:12:54Z</time></trkpt><trkpt lat="46.5280986484" lon="12.0167399570"><ele>2407.76</ele><time>2013-07-26T12:13:04Z</time></trkpt><trkpt lat="46.5280766878" lon="12.0167269651"><ele>2407.28</ele><time>2013-07-26T12:13:06Z</time></trkpt><trkpt lat="46.5280103032" lon="12.0166827086"><ele>2406.80</ele><time>2013-07-26T12:13:12Z</time></trkpt><trkpt lat="46.5279417392" lon="12.0165764261"><ele>2405.84</ele><time>2013-07-26T12:13:23Z</time></trkpt><trkpt lat="46.5279181022" lon="12.0165781025"><ele>2405.84</ele><time>2013-07-26T12:13:26Z</time></trkpt><trkpt lat="46.5278412402" lon="12.0165507775"><ele>2407.28</ele><time>2013-07-26T12:13:33Z</time></trkpt><trkpt lat="46.5278072096" lon="12.0165403001"><ele>2408.24</ele><time>2013-07-26T12:13:37Z</time></trkpt><trkpt lat="46.5277813096" lon="12.0165289007"><ele>2408.24</ele><time>2013-07-26T12:13:40Z</time></trkpt><trkpt lat="46.5277119912" lon="12.0165036712"><ele>2410.16</ele><time>2013-07-26T12:13:48Z</time></trkpt><trkpt lat="46.5276694112" lon="12.0164639410"><ele>2410.16</ele><time>2013-07-26T12:13:52Z</time></trkpt><trkpt lat="46.5276135039" lon="12.0163881686"><ele>2411.12</ele><time>2013-07-26T12:13:59Z</time></trkpt><trkpt lat="46.5275912918" lon="12.0163768530"><ele>2411.12</ele><time>2013-07-26T12:14:01Z</time></trkpt><trkpt lat="46.5274945647" lon="12.0162683073"><ele>2410.16</ele><time>2013-07-26T12:14:12Z</time></trkpt><trkpt lat="46.5274849255" lon="12.0162652899"><ele>2409.68</ele><time>2013-07-26T12:14:14Z</time></trkpt><trkpt lat="46.5274604503" lon="12.0161792077"><ele>2410.16</ele><time>2013-07-26T12:14:26Z</time></trkpt><trkpt lat="46.5274604503" lon="12.0161792077"><ele>2410.64</ele><time>2013-07-26T12:14:41Z</time></trkpt><trkpt lat="46.5274604503" lon="12.0161792077"><ele>2410.16</ele><time>2013-07-26T12:14:42Z</time></trkpt><trkpt lat="46.5274270065" lon="12.0161685627"><ele>2410.16</ele><time>2013-07-26T12:14:45Z</time></trkpt><trkpt lat="46.5273928922" lon="12.0161226299"><ele>2410.64</ele><time>2013-07-26T12:14:50Z</time></trkpt><trkpt lat="46.5273323748" lon="12.0160889346"><ele>2411.60</ele><time>2013-07-26T12:14:56Z</time></trkpt><trkpt lat="46.5272950754" lon="12.0160546526"><ele>2412.57</ele><time>2013-07-26T12:15:00Z</time></trkpt><trkpt lat="46.5272322111" lon="12.0159756113"><ele>2412.57</ele><time>2013-07-26T12:15:08Z</time></trkpt><trkpt lat="46.5271861106" lon="12.0159029402"><ele>2412.09</ele><time>2013-07-26T12:15:14Z</time></trkpt><trkpt lat="46.5271247551" lon="12.0158503857"><ele>2410.64</ele><time>2013-07-26T12:15:20Z</time></trkpt><trkpt lat="46.5270523354" lon="12.0157351345"><ele>2411.60</ele><time>2013-07-26T12:15:29Z</time></trkpt><trkpt lat="46.5269617271" lon="12.0156224817"><ele>2412.57</ele><time>2013-07-26T12:15:39Z</time></trkpt><trkpt lat="46.5269095916" lon="12.0154931489"><ele>2413.05</ele><time>2013-07-26T12:15:49Z</time></trkpt><trkpt lat="46.5268892236" lon="12.0154475514"><ele>2412.57</ele><time>2013-07-26T12:15:57Z</time></trkpt><trkpt lat="46.5268370043" lon="12.0154010318"><ele>2410.16</ele><time>2013-07-26T12:16:05Z</time></trkpt><trkpt lat="46.5268142056" lon="12.0153873693"><ele>2409.68</ele><time>2013-07-26T12:16:09Z</time></trkpt><trkpt lat="46.5268138703" lon="12.0154203940"><ele>2407.76</ele><time>2013-07-26T12:16:15Z</time></trkpt><trkpt lat="46.5267598908" lon="12.0153446216"><ele>2406.32</ele><time>2013-07-26T12:16:23Z</time></trkpt><trkpt lat="46.5267020557" lon="12.0153102558"><ele>2404.88</ele><time>2013-07-26T12:16:32Z</time></trkpt><trkpt lat="46.5266718809" lon="12.0152706094"><ele>2404.88</ele><time>2013-07-26T12:16:42Z</time></trkpt><trkpt lat="46.5266567934" lon="12.0152548514"><ele>2403.91</ele><time>2013-07-26T12:16:44Z</time></trkpt><trkpt lat="46.5266067535" lon="12.0151426177"><ele>2404.39</ele><time>2013-07-26T12:16:55Z</time></trkpt><trkpt lat="46.5265978687" lon="12.0150482375"><ele>2404.88</ele><time>2013-07-26T12:17:02Z</time></trkpt><trkpt lat="46.5265618265" lon="12.0149511751"><ele>2405.84</ele><time>2013-07-26T12:17:10Z</time></trkpt><trkpt lat="46.5264762472" lon="12.0148149692"><ele>2404.88</ele><time>2013-07-26T12:17:20Z</time></trkpt><trkpt lat="46.5264224354" lon="12.0147823635"><ele>2402.47</ele><time>2013-07-26T12:17:30Z</time></trkpt><trkpt lat="46.5264258720" lon="12.0148332417"><ele>2400.55</ele><time>2013-07-26T12:17:37Z</time></trkpt><trkpt lat="46.5263991337" lon="12.0148405340"><ele>2398.63</ele><time>2013-07-26T12:17:48Z</time></trkpt><trkpt lat="46.5264142212" lon="12.0149111096"><ele>2396.22</ele><time>2013-07-26T12:17:59Z</time></trkpt><trkpt lat="46.5264459047" lon="12.0150072500"><ele>2393.82</ele><time>2013-07-26T12:18:09Z</time></trkpt><trkpt lat="46.5264497604" lon="12.0150391851"><ele>2393.34</ele><time>2013-07-26T12:18:11Z</time></trkpt><trkpt lat="46.5264824498" lon="12.0151746366"><ele>2391.42</ele><time>2013-07-26T12:18:21Z</time></trkpt><trkpt lat="46.5264071804" lon="12.0152266044"><ele>2389.97</ele><time>2013-07-26T12:18:29Z</time></trkpt><trkpt lat="46.5263783466" lon="12.0152155403"><ele>2389.01</ele><time>2013-07-26T12:18:33Z</time></trkpt><trkpt lat="46.5263806935" lon="12.0152590424"><ele>2388.05</ele><time>2013-07-26T12:18:36Z</time></trkpt><trkpt lat="46.5263920091" lon="12.0153011195"><ele>2387.57</ele><time>2013-07-26T12:18:39Z</time></trkpt><trkpt lat="46.5264180768" lon="12.0154615492"><ele>2384.69</ele><time>2013-07-26T12:18:48Z</time></trkpt><trkpt lat="46.5264384449" lon="12.0155879483"><ele>2382.76</ele><time>2013-07-26T12:18:57Z</time></trkpt><trkpt lat="46.5264406241" lon="12.0156006888"><ele>2383.73</ele><time>2013-07-26T12:18:58Z</time></trkpt><trkpt lat="46.5264819469" lon="12.0157213882"><ele>2381.80</ele><time>2013-07-26T12:19:08Z</time></trkpt><trkpt lat="46.5264563821" lon="12.0158064645"><ele>2380.36</ele><time>2013-07-26T12:19:16Z</time></trkpt><trkpt lat="46.5264352597" lon="12.0158100687"><ele>2380.36</ele><time>2013-07-26T12:19:18Z</time></trkpt><trkpt lat="46.5263249539" lon="12.0157743618"><ele>2377.00</ele><time>2013-07-26T12:19:29Z</time></trkpt><trkpt lat="46.5262656100" lon="12.0156925544"><ele>2375.07</ele><time>2013-07-26T12:19:39Z</time></trkpt><trkpt lat="46.5262389556" lon="12.0156850945"><ele>2374.11</ele><time>2013-07-26T12:19:42Z</time></trkpt><trkpt lat="46.5262326691" lon="12.0156746171"><ele>2373.15</ele><time>2013-07-26T12:19:48Z</time></trkpt><trkpt lat="46.5261873230" lon="12.0155557618"><ele>2372.67</ele><time>2013-07-26T12:19:58Z</time></trkpt><trkpt lat="46.5261385404" lon="12.0154524129"><ele>2373.15</ele><time>2013-07-26T12:20:07Z</time></trkpt><trkpt lat="46.5261298232" lon="12.0154418517"><ele>2372.19</ele><time>2013-07-26T12:20:08Z</time></trkpt><trkpt lat="46.5260242950" lon="12.0152763929"><ele>2370.27</ele><time>2013-07-26T12:20:19Z</time></trkpt><trkpt lat="46.5259761829" lon="12.0151743852"><ele>2369.79</ele><time>2013-07-26T12:20:29Z</time></trkpt><trkpt lat="46.5259790327" lon="12.0151689369"><ele>2369.79</ele><time>2013-07-26T12:20:31Z</time></trkpt><trkpt lat="46.5259678848" lon="12.0150924101"><ele>2367.86</ele><time>2013-07-26T12:20:39Z</time></trkpt><trkpt lat="46.5259780269" lon="12.0151291229"><ele>2367.38</ele><time>2013-07-26T12:20:42Z</time></trkpt><trkpt lat="46.5259983949" lon="12.0152457990"><ele>2365.46</ele><time>2013-07-26T12:20:52Z</time></trkpt><trkpt lat="46.5260014124" lon="12.0152600482"><ele>2365.46</ele><time>2013-07-26T12:20:53Z</time></trkpt><trkpt lat="46.5259547252" lon="12.0152469724"><ele>2364.50</ele><time>2013-07-26T12:20:57Z</time></trkpt><trkpt lat="46.5259173419" lon="12.0152116846"><ele>2363.06</ele><time>2013-07-26T12:21:01Z</time></trkpt><trkpt lat="46.5258555673" lon="12.0151685178"><ele>2361.14</ele><time>2013-07-26T12:21:12Z</time></trkpt><trkpt lat="46.5258856583" lon="12.0152341481"><ele>2359.69</ele><time>2013-07-26T12:21:18Z</time></trkpt><trkpt lat="46.5258885082" lon="12.0152773988"><ele>2359.21</ele><time>2013-07-26T12:21:21Z</time></trkpt><trkpt lat="46.5258745942" lon="12.0153351501"><ele>2357.29</ele><time>2013-07-26T12:21:27Z</time></trkpt><trkpt lat="46.5258559026" lon="12.0153134409"><ele>2357.29</ele><time>2013-07-26T12:21:29Z</time></trkpt><trkpt lat="46.5258416533" lon="12.0153152011"><ele>2355.85</ele><time>2013-07-26T12:21:37Z</time></trkpt><trkpt lat="46.5258858260" lon="12.0154319610"><ele>2352.96</ele><time>2013-07-26T12:21:47Z</time></trkpt><trkpt lat="46.5259077866" lon="12.0154239982"><ele>2352.48</ele><time>2013-07-26T12:21:50Z</time></trkpt><trkpt lat="46.5259498637" lon="12.0155053027"><ele>2350.08</ele><time>2013-07-26T12:22:00Z</time></trkpt><trkpt lat="46.5259921085" lon="12.0156317856"><ele>2347.68</ele><time>2013-07-26T12:22:11Z</time></trkpt><trkpt lat="46.5259786975" lon="12.0156992599"><ele>2346.23</ele><time>2013-07-26T12:22:19Z</time></trkpt><trkpt lat="46.5259081218" lon="12.0156710967"><ele>2344.31</ele><time>2013-07-26T12:22:27Z</time></trkpt><trkpt lat="46.5258689784" lon="12.0156380720"><ele>2341.91</ele><time>2013-07-26T12:22:37Z</time></trkpt><trkpt lat="46.5258908551" lon="12.0156993438"><ele>2339.51</ele><time>2013-07-26T12:22:44Z</time></trkpt><trkpt lat="46.5259055234" lon="12.0157403313"><ele>2339.02</ele><time>2013-07-26T12:22:48Z</time></trkpt><trkpt lat="46.5259168390" lon="12.0157639682"><ele>2338.54</ele><time>2013-07-26T12:22:50Z</time></trkpt><trkpt lat="46.5258255601" lon="12.0157882757"><ele>2336.62</ele><time>2013-07-26T12:23:00Z</time></trkpt><trkpt lat="46.5258239675" lon="12.0157508925"><ele>2334.22</ele><time>2013-07-26T12:23:10Z</time></trkpt><trkpt lat="46.5258378815" lon="12.0157752000"><ele>2333.74</ele><time>2013-07-26T12:23:13Z</time></trkpt><trkpt lat="46.5258412343" lon="12.0158058777"><ele>2332.78</ele><time>2013-07-26T12:23:15Z</time></trkpt><trkpt lat="46.5258585010" lon="12.0158496313"><ele>2331.81</ele><time>2013-07-26T12:23:19Z</time></trkpt><trkpt lat="46.5258792881" lon="12.0159596857"><ele>2330.37</ele><time>2013-07-26T12:23:29Z</time></trkpt><trkpt lat="46.5258657094" lon="12.0159808919"><ele>2329.41</ele><time>2013-07-26T12:23:31Z</time></trkpt><trkpt lat="46.5258185193" lon="12.0159604400"><ele>2328.45</ele><time>2013-07-26T12:23:37Z</time></trkpt><trkpt lat="46.5258007497" lon="12.0159501303"><ele>2327.49</ele><time>2013-07-26T12:23:39Z</time></trkpt><trkpt lat="46.5257653780" lon="12.0159524772"><ele>2326.53</ele><time>2013-07-26T12:23:43Z</time></trkpt><trkpt lat="46.5257046092" lon="12.0159301814"><ele>2324.12</ele><time>2013-07-26T12:23:52Z</time></trkpt><trkpt lat="46.5256625321" lon="12.0158800576"><ele>2322.68</ele><time>2013-07-26T12:23:58Z</time></trkpt><trkpt lat="46.5255767014" lon="12.0158270840"><ele>2319.80</ele><time>2013-07-26T12:24:09Z</time></trkpt><trkpt lat="46.5255754441" lon="12.0157932211"><ele>2319.32</ele><time>2013-07-26T12:24:11Z</time></trkpt><trkpt lat="46.5255263261" lon="12.0156874415"><ele>2317.40</ele><time>2013-07-26T12:24:20Z</time></trkpt><trkpt lat="46.5255052876" lon="12.0156565122"><ele>2316.43</ele><time>2013-07-26T12:24:23Z</time></trkpt><trkpt lat="46.5254715923" lon="12.0156312827"><ele>2314.51</ele><time>2013-07-26T12:24:33Z</time></trkpt><trkpt lat="46.5255016834" lon="12.0157414209"><ele>2313.07</ele><time>2013-07-26T12:24:43Z</time></trkpt><trkpt lat="46.5255064610" lon="12.0158021897"><ele>2312.11</ele><time>2013-07-26T12:24:48Z</time></trkpt><trkpt lat="46.5254614502" lon="12.0158158522"><ele>2310.19</ele><time>2013-07-26T12:24:57Z</time></trkpt><trkpt lat="46.5254543256" lon="12.0158130862"><ele>2311.15</ele><time>2013-07-26T12:25:05Z</time></trkpt><trkpt lat="46.5254152659" lon="12.0157708414"><ele>2309.22</ele><time>2013-07-26T12:25:11Z</time></trkpt><trkpt lat="46.5253255796" lon="12.0156385750"><ele>2307.30</ele><time>2013-07-26T12:25:22Z</time></trkpt><trkpt lat="46.5253093187" lon="12.0156248286"><ele>2306.34</ele><time>2013-07-26T12:25:31Z</time></trkpt><trkpt lat="46.5252351388" lon="12.0155312866"><ele>2304.90</ele><time>2013-07-26T12:25:42Z</time></trkpt><trkpt lat="46.5251726098" lon="12.0154819172"><ele>2302.98</ele><time>2013-07-26T12:25:50Z</time></trkpt><trkpt lat="46.5251524094" lon="12.0154690091"><ele>2302.49</ele><time>2013-07-26T12:25:52Z</time></trkpt><trkpt lat="46.5251265932" lon="12.0154509041"><ele>2302.01</ele><time>2013-07-26T12:25:54Z</time></trkpt><trkpt lat="46.5250762179" lon="12.0154064801"><ele>2301.05</ele><time>2013-07-26T12:26:00Z</time></trkpt><trkpt lat="46.5250155330" lon="12.0152830984"><ele>2298.65</ele><time>2013-07-26T12:26:11Z</time></trkpt><trkpt lat="46.5250107553" lon="12.0152726211"><ele>2298.17</ele><time>2013-07-26T12:26:12Z</time></trkpt><trkpt lat="46.5249724500" lon="12.0152048953"><ele>2296.73</ele><time>2013-07-26T12:26:17Z</time></trkpt><trkpt lat="46.5249374136" lon="12.0151405223"><ele>2295.77</ele><time>2013-07-26T12:26:21Z</time></trkpt><trkpt lat="46.5248558577" lon="12.0150729641"><ele>2292.88</ele><time>2013-07-26T12:26:31Z</time></trkpt><trkpt lat="46.5248332266" lon="12.0150369219"><ele>2292.40</ele><time>2013-07-26T12:26:36Z</time></trkpt><trkpt lat="46.5247972682" lon="12.0149330702"><ele>2291.44</ele><time>2013-07-26T12:26:45Z</time></trkpt><trkpt lat="46.5247845277" lon="12.0148794260"><ele>2290.48</ele><time>2013-07-26T12:26:48Z</time></trkpt><trkpt lat="46.5247442108" lon="12.0147807710"><ele>2288.56</ele><time>2013-07-26T12:26:55Z</time></trkpt><trkpt lat="46.5247019660" lon="12.0145959500"><ele>2286.15</ele><time>2013-07-26T12:27:06Z</time></trkpt><trkpt lat="46.5246387664" lon="12.0145187527"><ele>2283.75</ele><time>2013-07-26T12:27:15Z</time></trkpt><trkpt lat="46.5246069152" lon="12.0145055093"><ele>2282.31</ele><time>2013-07-26T12:27:19Z</time></trkpt><trkpt lat="46.5245523490" lon="12.0144356880"><ele>2279.90</ele><time>2013-07-26T12:27:28Z</time></trkpt><trkpt lat="46.5245477390" lon="12.0144060161"><ele>2277.98</ele><time>2013-07-26T12:27:38Z</time></trkpt><trkpt lat="46.5245562885" lon="12.0145067666"><ele>2276.06</ele><time>2013-07-26T12:27:48Z</time></trkpt><trkpt lat="46.5245538577" lon="12.0145379473"><ele>2274.62</ele><time>2013-07-26T12:27:53Z</time></trkpt><trkpt lat="46.5244954359" lon="12.0146615803"><ele>2271.73</ele><time>2013-07-26T12:28:02Z</time></trkpt><trkpt lat="46.5244523529" lon="12.0147988759"><ele>2269.81</ele><time>2013-07-26T12:28:12Z</time></trkpt><trkpt lat="46.5244743135" lon="12.0148962736"><ele>2269.33</ele><time>2013-07-26T12:28:18Z</time></trkpt><trkpt lat="46.5244712960" lon="12.0150126144"><ele>2267.89</ele><time>2013-07-26T12:28:25Z</time></trkpt><trkpt lat="46.5244760737" lon="12.0150792506"><ele>2267.41</ele><time>2013-07-26T12:28:29Z</time></trkpt><trkpt lat="46.5244138800" lon="12.0151629858"><ele>2264.52</ele><time>2013-07-26T12:28:39Z</time></trkpt><trkpt lat="46.5243831184" lon="12.0151445456"><ele>2263.56</ele><time>2013-07-26T12:28:42Z</time></trkpt><trkpt lat="46.5243381914" lon="12.0150080882"><ele>2261.16</ele><time>2013-07-26T12:28:53Z</time></trkpt><trkpt lat="46.5243256185" lon="12.0149894804"><ele>2261.16</ele><time>2013-07-26T12:28:55Z</time></trkpt><trkpt lat="46.5242927615" lon="12.0149804279"><ele>2259.24</ele><time>2013-07-26T12:29:01Z</time></trkpt><trkpt lat="46.5242806915" lon="12.0149370935"><ele>2259.24</ele><time>2013-07-26T12:29:04Z</time></trkpt><trkpt lat="46.5242333338" lon="12.0148103591"><ele>2256.35</ele><time>2013-07-26T12:29:14Z</time></trkpt><trkpt lat="46.5241610818" lon="12.0147219300"><ele>2254.43</ele><time>2013-07-26T12:29:25Z</time></trkpt><trkpt lat="46.5241502691" lon="12.0147068426"><ele>2253.95</ele><time>2013-07-26T12:29:27Z</time></trkpt><trkpt lat="46.5241247043" lon="12.0146268792"><ele>2251.54</ele><time>2013-07-26T12:29:37Z</time></trkpt><trkpt lat="46.5241047554" lon="12.0146312378"><ele>2251.54</ele><time>2013-07-26T12:29:40Z</time></trkpt><trkpt lat="46.5240669530" lon="12.0145516098"><ele>2249.14</ele><time>2013-07-26T12:29:47Z</time></trkpt><trkpt lat="46.5240501892" lon="12.0145279728"><ele>2249.14</ele><time>2013-07-26T12:29:49Z</time></trkpt><trkpt lat="46.5240151528" lon="12.0144373644"><ele>2247.22</ele><time>2013-07-26T12:29:56Z</time></trkpt><trkpt lat="46.5239759255" lon="12.0142528787"><ele>2244.33</ele><time>2013-07-26T12:30:09Z</time></trkpt><trkpt lat="46.5239480138" lon="12.0142915193"><ele>2242.89</ele><time>2013-07-26T12:30:19Z</time></trkpt><trkpt lat="46.5239351057" lon="12.0142840594"><ele>2242.41</ele><time>2013-07-26T12:30:21Z</time></trkpt><trkpt lat="46.5239128098" lon="12.0142646972"><ele>2241.93</ele><time>2013-07-26T12:30:23Z</time></trkpt><trkpt lat="46.5238668770" lon="12.0141336881"><ele>2239.53</ele><time>2013-07-26T12:30:35Z</time></trkpt><trkpt lat="46.5238634404" lon="12.0141237136"><ele>2239.53</ele><time>2013-07-26T12:30:36Z</time></trkpt><trkpt lat="46.5238344390" lon="12.0139952190"><ele>2237.13</ele><time>2013-07-26T12:30:46Z</time></trkpt><trkpt lat="46.5238249674" lon="12.0139771979"><ele>2236.16</ele><time>2013-07-26T12:30:48Z</time></trkpt><trkpt lat="46.5238004085" lon="12.0139436703"><ele>2235.20</ele><time>2013-07-26T12:30:51Z</time></trkpt><trkpt lat="46.5237707365" lon="12.0138907805"><ele>2232.80</ele><time>2013-07-26T12:31:01Z</time></trkpt><trkpt lat="46.5237437468" lon="12.0138854161"><ele>2232.32</ele><time>2013-07-26T12:31:04Z</time></trkpt><trkpt lat="46.5236823075" lon="12.0138035249"><ele>2230.40</ele><time>2013-07-26T12:31:14Z</time></trkpt><trkpt lat="46.5236719139" lon="12.0137098990"><ele>2227.51</ele><time>2013-07-26T12:31:25Z</time></trkpt><trkpt lat="46.5236789547" lon="12.0136528183"><ele>2227.03</ele><time>2013-07-26T12:31:30Z</time></trkpt><trkpt lat="46.5236353688" lon="12.0135273412"><ele>2223.67</ele><time>2013-07-26T12:31:41Z</time></trkpt><trkpt lat="46.5236013383" lon="12.0133695938"><ele>2222.22</ele><time>2013-07-26T12:31:53Z</time></trkpt><trkpt lat="46.5235923696" lon="12.0132555161"><ele>2218.86</ele><time>2013-07-26T12:32:02Z</time></trkpt><trkpt lat="46.5235667210" lon="12.0132045541"><ele>2217.42</ele><time>2013-07-26T12:32:11Z</time></trkpt><trkpt lat="46.5235383064" lon="12.0131272729"><ele>2216.94</ele><time>2013-07-26T12:32:17Z</time></trkpt><trkpt lat="46.5235181898" lon="12.0130818430"><ele>2216.46</ele><time>2013-07-26T12:32:21Z</time></trkpt><trkpt lat="46.5234949719" lon="12.0130649116"><ele>2215.98</ele><time>2013-07-26T12:32:23Z</time></trkpt><trkpt lat="46.5233869292" lon="12.0130100939"><ele>2214.53</ele><time>2013-07-26T12:32:33Z</time></trkpt><trkpt lat="46.5233750269" lon="12.0129932463"><ele>2215.50</ele><time>2013-07-26T12:32:35Z</time></trkpt><trkpt lat="46.5233035292" lon="12.0128889754"><ele>2212.61</ele><time>2013-07-26T12:32:43Z</time></trkpt><trkpt lat="46.5232769586" lon="12.0128463954"><ele>2212.13</ele><time>2013-07-26T12:32:47Z</time></trkpt><trkpt lat="46.5231485479" lon="12.0126619097"><ele>2209.25</ele><time>2013-07-26T12:33:01Z</time></trkpt><trkpt lat="46.5231151041" lon="12.0126065891"><ele>2207.81</ele><time>2013-07-26T12:33:06Z</time></trkpt><trkpt lat="46.5230916347" lon="12.0125787612"><ele>2207.81</ele><time>2013-07-26T12:33:09Z</time></trkpt><trkpt lat="46.5230579395" lon="12.0125235245"><ele>2206.84</ele><time>2013-07-26T12:33:13Z</time></trkpt><trkpt lat="46.5230143536" lon="12.0124151465"><ele>2206.36</ele><time>2013-07-26T12:33:19Z</time></trkpt><trkpt lat="46.5229062270" lon="12.0123827923"><ele>2203.96</ele><time>2013-07-26T12:33:30Z</time></trkpt><trkpt lat="46.5228987671" lon="12.0123827085"><ele>2203.96</ele><time>2013-07-26T12:33:44Z</time></trkpt><trkpt lat="46.5228290297" lon="12.0123202633"><ele>2202.52</ele><time>2013-07-26T12:33:53Z</time></trkpt><trkpt lat="46.5228029620" lon="12.0122891665"><ele>2200.59</ele><time>2013-07-26T12:33:56Z</time></trkpt><trkpt lat="46.5227420256" lon="12.0122403838"><ele>2199.63</ele><time>2013-07-26T12:34:03Z</time></trkpt><trkpt lat="46.5227181371" lon="12.0122688822"><ele>2199.15</ele><time>2013-07-26T12:34:06Z</time></trkpt><trkpt lat="46.5226837713" lon="12.0122596622"><ele>2197.71</ele><time>2013-07-26T12:34:10Z</time></trkpt><trkpt lat="46.5225573722" lon="12.0120808762"><ele>2197.23</ele><time>2013-07-26T12:34:24Z</time></trkpt><trkpt lat="46.5224994533" lon="12.0119462628"><ele>2197.23</ele><time>2013-07-26T12:34:35Z</time></trkpt><trkpt lat="46.5224505030" lon="12.0118244737"><ele>2194.83</ele><time>2013-07-26T12:34:46Z</time></trkpt><trkpt lat="46.5224305540" lon="12.0117887668"><ele>2192.90</ele><time>2013-07-26T12:34:50Z</time></trkpt><trkpt lat="46.5223403648" lon="12.0117502101"><ele>2190.98</ele><time>2013-07-26T12:35:00Z</time></trkpt><trkpt lat="46.5222726390" lon="12.0117437560"><ele>2189.06</ele><time>2013-07-26T12:35:05Z</time></trkpt><trkpt lat="46.5221591480" lon="12.0117759425"><ele>2187.14</ele><time>2013-07-26T12:35:15Z</time></trkpt><trkpt lat="46.5221064258" lon="12.0117636211"><ele>2186.66</ele><time>2013-07-26T12:35:20Z</time></trkpt><trkpt lat="46.5220786817" lon="12.0117274113"><ele>2185.69</ele><time>2013-07-26T12:35:28Z</time></trkpt><trkpt lat="46.5220786817" lon="12.0117274113"><ele>2184.73</ele><time>2013-07-26T12:35:44Z</time></trkpt><trkpt lat="46.5220673662" lon="12.0117161795"><ele>2184.25</ele><time>2013-07-26T12:35:54Z</time></trkpt><trkpt lat="46.5220698807" lon="12.0117120724"><ele>2184.73</ele><time>2013-07-26T12:36:10Z</time></trkpt><trkpt lat="46.5220630076" lon="12.0116945542"><ele>2184.25</ele><time>2013-07-26T12:36:12Z</time></trkpt><trkpt lat="46.5220551286" lon="12.0116563328"><ele>2184.73</ele><time>2013-07-26T12:36:15Z</time></trkpt><trkpt lat="46.5219972096" lon="12.0114973281"><ele>2183.77</ele><time>2013-07-26T12:36:26Z</time></trkpt><trkpt lat="46.5219540428" lon="12.0112788957"><ele>2181.85</ele><time>2013-07-26T12:36:41Z</time></trkpt><trkpt lat="46.5219069365" lon="12.0111327991"><ele>2179.93</ele><time>2013-07-26T12:36:53Z</time></trkpt><trkpt lat="46.5218412224" lon="12.0110171288"><ele>2176.56</ele><time>2013-07-26T12:37:03Z</time></trkpt><trkpt lat="46.5217897575" lon="12.0109368302"><ele>2175.12</ele><time>2013-07-26T12:37:12Z</time></trkpt><trkpt lat="46.5217659529" lon="12.0108558610"><ele>2173.68</ele><time>2013-07-26T12:37:18Z</time></trkpt><trkpt lat="46.5216836426" lon="12.0106867142"><ele>2170.79</ele><time>2013-07-26T12:37:32Z</time></trkpt><trkpt lat="46.5216435771" lon="12.0105734747"><ele>2168.87</ele><time>2013-07-26T12:37:42Z</time></trkpt><trkpt lat="46.5216332674" lon="12.0105456468"><ele>2168.39</ele><time>2013-07-26T12:37:44Z</time></trkpt><trkpt lat="46.5215785336" lon="12.0103885699"><ele>2165.51</ele><time>2013-07-26T12:37:56Z</time></trkpt><trkpt lat="46.5214730054" lon="12.0101976302"><ele>2162.62</ele><time>2013-07-26T12:38:11Z</time></trkpt><trkpt lat="46.5214308444" lon="12.0100501925"><ele>2160.22</ele><time>2013-07-26T12:38:23Z</time></trkpt><trkpt lat="46.5214239713" lon="12.0100150723"><ele>2159.26</ele><time>2013-07-26T12:38:26Z</time></trkpt><trkpt lat="46.5213337820" lon="12.0098613482"><ele>2156.37</ele><time>2013-07-26T12:38:39Z</time></trkpt><trkpt lat="46.5212267451" lon="12.0097788703"><ele>2153.01</ele><time>2013-07-26T12:38:51Z</time></trkpt><trkpt lat="46.5211898647" lon="12.0097526349"><ele>2151.57</ele><time>2013-07-26T12:38:57Z</time></trkpt><trkpt lat="46.5211492963" lon="12.0096958894"><ele>2150.13</ele><time>2013-07-26T12:39:05Z</time></trkpt><trkpt lat="46.5210825764" lon="12.0096702408"><ele>2148.20</ele><time>2013-07-26T12:39:14Z</time></trkpt><trkpt lat="46.5210583527" lon="12.0096635353"><ele>2147.72</ele><time>2013-07-26T12:39:16Z</time></trkpt><trkpt lat="46.5209313668" lon="12.0096062869"><ele>2143.40</ele><time>2013-07-26T12:39:29Z</time></trkpt><trkpt lat="46.5208158642" lon="12.0095579233"><ele>2140.51</ele><time>2013-07-26T12:39:41Z</time></trkpt><trkpt lat="46.5207640640" lon="12.0095311850"><ele>2139.07</ele><time>2013-07-26T12:39:47Z</time></trkpt><trkpt lat="46.5207192209" lon="12.0095094759"><ele>2138.11</ele><time>2013-07-26T12:39:51Z</time></trkpt><trkpt lat="46.5206286963" lon="12.0094691589"><ele>2134.74</ele><time>2013-07-26T12:40:03Z</time></trkpt><trkpt lat="46.5206248406" lon="12.0094614476"><ele>2134.26</ele><time>2013-07-26T12:40:04Z</time></trkpt><trkpt lat="46.5205132775" lon="12.0093910396"><ele>2131.86</ele><time>2013-07-26T12:40:16Z</time></trkpt><trkpt lat="46.5204888023" lon="12.0093676541"><ele>2130.42</ele><time>2013-07-26T12:40:19Z</time></trkpt><trkpt lat="46.5203922428" lon="12.0092482958"><ele>2128.02</ele><time>2013-07-26T12:40:30Z</time></trkpt><trkpt lat="46.5202931687" lon="12.0091170352"><ele>2126.57</ele><time>2013-07-26T12:40:40Z</time></trkpt><trkpt lat="46.5201956872" lon="12.0090058073"><ele>2126.09</ele><time>2013-07-26T12:40:51Z</time></trkpt><trkpt lat="46.5201648418" lon="12.0089820027"><ele>2126.09</ele><time>2013-07-26T12:40:54Z</time></trkpt><trkpt lat="46.5200921707" lon="12.0088540949"><ele>2125.61</ele><time>2013-07-26T12:41:06Z</time></trkpt><trkpt lat="46.5199816134" lon="12.0087158773"><ele>2125.13</ele><time>2013-07-26T12:41:18Z</time></trkpt><trkpt lat="46.5199486725" lon="12.0086755604"><ele>2128.02</ele><time>2013-07-26T12:41:28Z</time></trkpt><trkpt lat="46.5198403783" lon="12.0085255243"><ele>2128.02</ele><time>2013-07-26T12:41:40Z</time></trkpt><trkpt lat="46.5198270511" lon="12.0084882248"><ele>2128.50</ele><time>2013-07-26T12:41:42Z</time></trkpt><trkpt lat="46.5197474230" lon="12.0083460677"><ele>2128.50</ele><time>2013-07-26T12:41:52Z</time></trkpt><trkpt lat="46.5197206847" lon="12.0083038229"><ele>2128.50</ele><time>2013-07-26T12:41:55Z</time></trkpt><trkpt lat="46.5196924377" lon="12.0081811119"><ele>2128.02</ele><time>2013-07-26T12:42:05Z</time></trkpt><trkpt lat="46.5196345188" lon="12.0081127156"><ele>2128.02</ele><time>2013-07-26T12:42:16Z</time></trkpt><trkpt lat="46.5196345188" lon="12.0081127156"><ele>2128.02</ele><time>2013-07-26T12:42:27Z</time></trkpt><trkpt lat="46.5195698943" lon="12.0081287250"><ele>2128.02</ele><time>2013-07-26T12:42:36Z</time></trkpt><trkpt lat="46.5195510350" lon="12.0081263781"><ele>2127.53</ele><time>2013-07-26T12:42:46Z</time></trkpt><trkpt lat="46.5195531305" lon="12.0081019867"><ele>2124.17</ele><time>2013-07-26T12:42:52Z</time></trkpt><trkpt lat="46.5195531305" lon="12.0081019867"><ele>2128.98</ele><time>2013-07-26T12:42:53Z</time></trkpt><trkpt lat="46.5195531305" lon="12.0081019867"><ele>2125.13</ele><time>2013-07-26T12:42:56Z</time></trkpt><trkpt lat="46.5195531305" lon="12.0081019867"><ele>2130.42</ele><time>2013-07-26T12:42:57Z</time></trkpt><trkpt lat="46.5195531305" lon="12.0081019867"><ele>2123.69</ele><time>2013-07-26T12:42:59Z</time></trkpt><trkpt lat="46.5195576567" lon="12.0080961194"><ele>2132.34</ele><time>2013-07-26T12:43:01Z</time></trkpt><trkpt lat="46.5195576567" lon="12.0080961194"><ele>2122.73</ele><time>2013-07-26T12:43:02Z</time></trkpt><trkpt lat="46.5195576567" lon="12.0080961194"><ele>2136.67</ele><time>2013-07-26T12:43:04Z</time></trkpt><trkpt lat="46.5195576567" lon="12.0080961194"><ele>2128.98</ele><time>2013-07-26T12:43:05Z</time></trkpt><trkpt lat="46.5195559803" lon="12.0080954488"><ele>2128.98</ele><time>2013-07-26T12:43:10Z</time></trkpt><trkpt lat="46.5195540525" lon="12.0080913417"><ele>2124.17</ele><time>2013-07-26T12:43:11Z</time></trkpt><trkpt lat="46.5195569023" lon="12.0080902521"><ele>2124.65</ele><time>2013-07-26T12:43:12Z</time></trkpt><trkpt lat="46.5195569023" lon="12.0080902521"><ele>2128.02</ele><time>2013-07-26T12:43:13Z</time></trkpt><trkpt lat="46.5195569023" lon="12.0080902521"><ele>2124.17</ele><time>2013-07-26T12:43:14Z</time></trkpt><trkpt lat="46.5195569023" lon="12.0080902521"><ele>2127.53</ele><time>2013-07-26T12:43:15Z</time></trkpt><trkpt lat="46.5195569023" lon="12.0080902521"><ele>2128.50</ele><time>2013-07-26T12:43:17Z</time></trkpt><trkpt lat="46.5195569023" lon="12.0080902521"><ele>2126.57</ele><time>2013-07-26T12:43:19Z</time></trkpt></trkseg></trk></gpx> 
